<?xml version="1.0" encoding="UTF-8" standalone="no" ?>
<gpx xmlns="http://www.topografix.com/GPX/1/1" xmlns:xsi="http://www.w3.org/2001/XMLSchema-instance" xsi:schemaLocation="http://www.topografix.com/GPX/1/1 http://www.topografix.com/GPX/1/1/gpx.xsd" version="1.1" creator="VisuGPX - https://www.visugpx.com">
  <metadata>
    <name>Triton 2026 30kms</name>
    <desc><![CDATA[Parcours vtt 30kms]]></desc>
  </metadata>
  <wpt lat="45.37605" lon="5.63829">
    <ele>448.2</ele>
    <name><![CDATA[Ravitaillement]]></name>
    <desc><![CDATA[]]></desc>
  </wpt>
  <trk>
    <name><![CDATA[TRITON 2026 - VTT 32kms-23403280]]></name>
    <trkseg>
      <trkpt lat="45.41286" lon="5.55585">
        <ele>470</ele>
        <time>2026-05-25T07:16:10Z</time>
      </trkpt>
      <trkpt lat="45.41255" lon="5.55585">
        <ele>471</ele>
        <time>2026-05-25T07:16:17Z</time>
      </trkpt>
      <trkpt lat="45.41247" lon="5.55577">
        <ele>471</ele>
        <time>2026-05-25T07:16:20Z</time>
      </trkpt>
      <trkpt lat="45.41222" lon="5.55543">
        <ele>471</ele>
        <time>2026-05-25T07:16:28Z</time>
      </trkpt>
      <trkpt lat="45.41201" lon="5.55526">
        <ele>471</ele>
        <time>2026-05-25T07:16:33Z</time>
      </trkpt>
      <trkpt lat="45.412" lon="5.55524">
        <ele>471</ele>
        <time>2026-05-25T07:16:34Z</time>
      </trkpt>
      <trkpt lat="45.41205" lon="5.55512">
        <ele>471</ele>
        <time>2026-05-25T07:16:36Z</time>
      </trkpt>
      <trkpt lat="45.41205" lon="5.55511">
        <ele>471</ele>
        <time>2026-05-25T07:16:36Z</time>
      </trkpt>
      <trkpt lat="45.41205" lon="5.55512">
        <ele>471</ele>
        <time>2026-05-25T07:16:36Z</time>
      </trkpt>
      <trkpt lat="45.41197" lon="5.55508">
        <ele>471</ele>
        <time>2026-05-25T07:16:38Z</time>
      </trkpt>
      <trkpt lat="45.41189" lon="5.55495">
        <ele>471</ele>
        <time>2026-05-25T07:16:41Z</time>
      </trkpt>
      <trkpt lat="45.4118" lon="5.55507">
        <ele>471</ele>
        <time>2026-05-25T07:16:44Z</time>
      </trkpt>
      <trkpt lat="45.41148" lon="5.5555">
        <ele>472</ele>
        <time>2026-05-25T07:16:54Z</time>
      </trkpt>
      <trkpt lat="45.41135" lon="5.55535">
        <ele>471</ele>
        <time>2026-05-25T07:16:58Z</time>
      </trkpt>
      <trkpt lat="45.4113" lon="5.55543">
        <ele>472</ele>
        <time>2026-05-25T07:17:00Z</time>
      </trkpt>
      <trkpt lat="45.41129" lon="5.55545">
        <ele>472</ele>
        <time>2026-05-25T07:17:00Z</time>
      </trkpt>
      <trkpt lat="45.41129" lon="5.55545">
        <ele>472</ele>
        <time>2026-05-25T07:17:00Z</time>
      </trkpt>
      <trkpt lat="45.41094" lon="5.55591">
        <ele>472</ele>
        <time>2026-05-25T07:17:11Z</time>
      </trkpt>
      <trkpt lat="45.41025" lon="5.55683">
        <ele>476</ele>
        <time>2026-05-25T07:17:33Z</time>
      </trkpt>
      <trkpt lat="45.41028" lon="5.5569">
        <ele>476</ele>
        <time>2026-05-25T07:17:35Z</time>
      </trkpt>
      <trkpt lat="45.41036" lon="5.55698">
        <ele>476</ele>
        <time>2026-05-25T07:17:37Z</time>
      </trkpt>
      <trkpt lat="45.41033" lon="5.55709">
        <ele>477</ele>
        <time>2026-05-25T07:17:39Z</time>
      </trkpt>
      <trkpt lat="45.41039" lon="5.55713">
        <ele>477</ele>
        <time>2026-05-25T07:17:41Z</time>
      </trkpt>
      <trkpt lat="45.41035" lon="5.55725">
        <ele>477</ele>
        <time>2026-05-25T07:17:43Z</time>
      </trkpt>
      <trkpt lat="45.41032" lon="5.5573">
        <ele>478</ele>
        <time>2026-05-25T07:17:44Z</time>
      </trkpt>
      <trkpt lat="45.41076" lon="5.55831">
        <ele>479</ele>
        <time>2026-05-25T07:18:03Z</time>
      </trkpt>
      <trkpt lat="45.41057" lon="5.55881">
        <ele>481</ele>
        <time>2026-05-25T07:18:13Z</time>
      </trkpt>
      <trkpt lat="45.41036" lon="5.5591">
        <ele>482</ele>
        <time>2026-05-25T07:18:19Z</time>
      </trkpt>
      <trkpt lat="45.40981" lon="5.55961">
        <ele>482</ele>
        <time>2026-05-25T07:18:35Z</time>
      </trkpt>
      <trkpt lat="45.40963" lon="5.5601">
        <ele>480</ele>
        <time>2026-05-25T07:18:44Z</time>
      </trkpt>
      <trkpt lat="45.40966" lon="5.56044">
        <ele>480</ele>
        <time>2026-05-25T07:18:49Z</time>
      </trkpt>
      <trkpt lat="45.40952" lon="5.56058">
        <ele>479</ele>
        <time>2026-05-25T07:18:53Z</time>
      </trkpt>
      <trkpt lat="45.40956" lon="5.56066">
        <ele>479</ele>
        <time>2026-05-25T07:18:55Z</time>
      </trkpt>
      <trkpt lat="45.40962" lon="5.56087">
        <ele>479</ele>
        <time>2026-05-25T07:18:59Z</time>
      </trkpt>
      <trkpt lat="45.40958" lon="5.56117">
        <ele>482</ele>
        <time>2026-05-25T07:19:04Z</time>
      </trkpt>
      <trkpt lat="45.40962" lon="5.56133">
        <ele>483</ele>
        <time>2026-05-25T07:19:07Z</time>
      </trkpt>
      <trkpt lat="45.4097" lon="5.56153">
        <ele>485</ele>
        <time>2026-05-25T07:19:10Z</time>
      </trkpt>
      <trkpt lat="45.40987" lon="5.56188">
        <ele>487</ele>
        <time>2026-05-25T07:19:17Z</time>
      </trkpt>
      <trkpt lat="45.40988" lon="5.56191">
        <ele>487</ele>
        <time>2026-05-25T07:19:18Z</time>
      </trkpt>
      <trkpt lat="45.40991" lon="5.56206">
        <ele>488</ele>
        <time>2026-05-25T07:19:20Z</time>
      </trkpt>
      <trkpt lat="45.40988" lon="5.56191">
        <ele>487</ele>
        <time>2026-05-25T07:19:23Z</time>
      </trkpt>
      <trkpt lat="45.40985" lon="5.56194">
        <ele>487</ele>
        <time>2026-05-25T07:19:24Z</time>
      </trkpt>
      <trkpt lat="45.40982" lon="5.56196">
        <ele>487</ele>
        <time>2026-05-25T07:19:25Z</time>
      </trkpt>
      <trkpt lat="45.40966" lon="5.56165">
        <ele>486</ele>
        <time>2026-05-25T07:19:31Z</time>
      </trkpt>
      <trkpt lat="45.40958" lon="5.56162">
        <ele>486</ele>
        <time>2026-05-25T07:19:33Z</time>
      </trkpt>
      <trkpt lat="45.40904" lon="5.56219">
        <ele>489</ele>
        <time>2026-05-25T07:19:49Z</time>
      </trkpt>
      <trkpt lat="45.40891" lon="5.56217">
        <ele>488</ele>
        <time>2026-05-25T07:19:52Z</time>
      </trkpt>
      <trkpt lat="45.40888" lon="5.56218">
        <ele>488</ele>
        <time>2026-05-25T07:19:52Z</time>
      </trkpt>
      <trkpt lat="45.4085" lon="5.56276">
        <ele>490</ele>
        <time>2026-05-25T07:20:05Z</time>
      </trkpt>
      <trkpt lat="45.40837" lon="5.56305">
        <ele>490</ele>
        <time>2026-05-25T07:20:11Z</time>
      </trkpt>
      <trkpt lat="45.40748" lon="5.56448">
        <ele>492</ele>
        <time>2026-05-25T07:20:42Z</time>
      </trkpt>
      <trkpt lat="45.40746" lon="5.56449">
        <ele>492</ele>
        <time>2026-05-25T07:20:43Z</time>
      </trkpt>
      <trkpt lat="45.40739" lon="5.56453">
        <ele>492</ele>
        <time>2026-05-25T07:20:45Z</time>
      </trkpt>
      <trkpt lat="45.40718" lon="5.56501">
        <ele>493</ele>
        <time>2026-05-25T07:20:54Z</time>
      </trkpt>
      <trkpt lat="45.40699" lon="5.5656">
        <ele>493</ele>
        <time>2026-05-25T07:21:05Z</time>
      </trkpt>
      <trkpt lat="45.40695" lon="5.56607">
        <ele>494</ele>
        <time>2026-05-25T07:21:12Z</time>
      </trkpt>
      <trkpt lat="45.40695" lon="5.56675">
        <ele>497</ele>
        <time>2026-05-25T07:21:23Z</time>
      </trkpt>
      <trkpt lat="45.40694" lon="5.56715">
        <ele>501</ele>
        <time>2026-05-25T07:21:30Z</time>
      </trkpt>
      <trkpt lat="45.40679" lon="5.56754">
        <ele>504</ele>
        <time>2026-05-25T07:21:37Z</time>
      </trkpt>
      <trkpt lat="45.40644" lon="5.56827">
        <ele>511</ele>
        <time>2026-05-25T07:21:52Z</time>
      </trkpt>
      <trkpt lat="45.40639" lon="5.56837">
        <ele>511</ele>
        <time>2026-05-25T07:21:54Z</time>
      </trkpt>
      <trkpt lat="45.40627" lon="5.5687">
        <ele>514</ele>
        <time>2026-05-25T07:22:00Z</time>
      </trkpt>
      <trkpt lat="45.40619" lon="5.56877">
        <ele>513</ele>
        <time>2026-05-25T07:22:02Z</time>
      </trkpt>
      <trkpt lat="45.40608" lon="5.56897">
        <ele>513</ele>
        <time>2026-05-25T07:22:06Z</time>
      </trkpt>
      <trkpt lat="45.40606" lon="5.56899">
        <ele>513</ele>
        <time>2026-05-25T07:22:07Z</time>
      </trkpt>
      <trkpt lat="45.40579" lon="5.56934">
        <ele>512</ele>
        <time>2026-05-25T07:22:15Z</time>
      </trkpt>
      <trkpt lat="45.40548" lon="5.56965">
        <ele>514</ele>
        <time>2026-05-25T07:22:24Z</time>
      </trkpt>
      <trkpt lat="45.4052" lon="5.56998">
        <ele>514</ele>
        <time>2026-05-25T07:22:33Z</time>
      </trkpt>
      <trkpt lat="45.40497" lon="5.57022">
        <ele>513</ele>
        <time>2026-05-25T07:22:39Z</time>
      </trkpt>
      <trkpt lat="45.40401" lon="5.57103">
        <ele>506</ele>
        <time>2026-05-25T07:23:05Z</time>
      </trkpt>
      <trkpt lat="45.40366" lon="5.57143">
        <ele>505</ele>
        <time>2026-05-25T07:23:16Z</time>
      </trkpt>
      <trkpt lat="45.40327" lon="5.57196">
        <ele>503</ele>
        <time>2026-05-25T07:23:28Z</time>
      </trkpt>
      <trkpt lat="45.40304" lon="5.57226">
        <ele>503</ele>
        <time>2026-05-25T07:23:36Z</time>
      </trkpt>
      <trkpt lat="45.40248" lon="5.57377">
        <ele>503</ele>
        <time>2026-05-25T07:24:04Z</time>
      </trkpt>
      <trkpt lat="45.40212" lon="5.57469">
        <ele>506</ele>
        <time>2026-05-25T07:24:21Z</time>
      </trkpt>
      <trkpt lat="45.40189" lon="5.57534">
        <ele>507</ele>
        <time>2026-05-25T07:24:33Z</time>
      </trkpt>
      <trkpt lat="45.40167" lon="5.57585">
        <ele>505</ele>
        <time>2026-05-25T07:24:43Z</time>
      </trkpt>
      <trkpt lat="45.40148" lon="5.57637">
        <ele>506</ele>
        <time>2026-05-25T07:24:52Z</time>
      </trkpt>
      <trkpt lat="45.40147" lon="5.57646">
        <ele>507</ele>
        <time>2026-05-25T07:24:54Z</time>
      </trkpt>
      <trkpt lat="45.40144" lon="5.57688">
        <ele>509</ele>
        <time>2026-05-25T07:25:01Z</time>
      </trkpt>
      <trkpt lat="45.40095" lon="5.57813">
        <ele>505</ele>
        <time>2026-05-25T07:25:24Z</time>
      </trkpt>
      <trkpt lat="45.40071" lon="5.57863">
        <ele>503</ele>
        <time>2026-05-25T07:25:34Z</time>
      </trkpt>
      <trkpt lat="45.40048" lon="5.57907">
        <ele>503</ele>
        <time>2026-05-25T07:25:43Z</time>
      </trkpt>
      <trkpt lat="45.4004" lon="5.57932">
        <ele>504</ele>
        <time>2026-05-25T07:25:48Z</time>
      </trkpt>
      <trkpt lat="45.40032" lon="5.5795">
        <ele>504</ele>
        <time>2026-05-25T07:25:51Z</time>
      </trkpt>
      <trkpt lat="45.40004" lon="5.5805">
        <ele>504</ele>
        <time>2026-05-25T07:26:09Z</time>
      </trkpt>
      <trkpt lat="45.39993" lon="5.58098">
        <ele>503</ele>
        <time>2026-05-25T07:26:17Z</time>
      </trkpt>
      <trkpt lat="45.3999" lon="5.58099">
        <ele>503</ele>
        <time>2026-05-25T07:26:18Z</time>
      </trkpt>
      <trkpt lat="45.3994" lon="5.58116">
        <ele>502</ele>
        <time>2026-05-25T07:26:30Z</time>
      </trkpt>
      <trkpt lat="45.3992" lon="5.58116">
        <ele>501</ele>
        <time>2026-05-25T07:26:34Z</time>
      </trkpt>
      <trkpt lat="45.39898" lon="5.5811">
        <ele>502</ele>
        <time>2026-05-25T07:26:40Z</time>
      </trkpt>
      <trkpt lat="45.39878" lon="5.58102">
        <ele>502</ele>
        <time>2026-05-25T07:26:45Z</time>
      </trkpt>
      <trkpt lat="45.39874" lon="5.581">
        <ele>502</ele>
        <time>2026-05-25T07:26:46Z</time>
      </trkpt>
      <trkpt lat="45.39853" lon="5.58088">
        <ele>503</ele>
        <time>2026-05-25T07:26:51Z</time>
      </trkpt>
      <trkpt lat="45.39837" lon="5.58077">
        <ele>503</ele>
        <time>2026-05-25T07:26:55Z</time>
      </trkpt>
      <trkpt lat="45.39824" lon="5.58065">
        <ele>503</ele>
        <time>2026-05-25T07:26:59Z</time>
      </trkpt>
      <trkpt lat="45.39804" lon="5.5806">
        <ele>504</ele>
        <time>2026-05-25T07:27:03Z</time>
      </trkpt>
      <trkpt lat="45.39754" lon="5.58065">
        <ele>507</ele>
        <time>2026-05-25T07:27:15Z</time>
      </trkpt>
      <trkpt lat="45.39732" lon="5.58062">
        <ele>509</ele>
        <time>2026-05-25T07:27:20Z</time>
      </trkpt>
      <trkpt lat="45.39714" lon="5.58053">
        <ele>511</ele>
        <time>2026-05-25T07:27:25Z</time>
      </trkpt>
      <trkpt lat="45.3969" lon="5.58036">
        <ele>514</ele>
        <time>2026-05-25T07:27:31Z</time>
      </trkpt>
      <trkpt lat="45.39675" lon="5.58023">
        <ele>515</ele>
        <time>2026-05-25T07:27:35Z</time>
      </trkpt>
      <trkpt lat="45.3966" lon="5.58012">
        <ele>515</ele>
        <time>2026-05-25T07:27:39Z</time>
      </trkpt>
      <trkpt lat="45.39649" lon="5.58007">
        <ele>516</ele>
        <time>2026-05-25T07:27:42Z</time>
      </trkpt>
      <trkpt lat="45.3963" lon="5.58002">
        <ele>518</ele>
        <time>2026-05-25T07:27:46Z</time>
      </trkpt>
      <trkpt lat="45.39616" lon="5.58">
        <ele>519</ele>
        <time>2026-05-25T07:27:49Z</time>
      </trkpt>
      <trkpt lat="45.39582" lon="5.58009">
        <ele>523</ele>
        <time>2026-05-25T07:27:58Z</time>
      </trkpt>
      <trkpt lat="45.39565" lon="5.58023">
        <ele>524</ele>
        <time>2026-05-25T07:28:02Z</time>
      </trkpt>
      <trkpt lat="45.3954" lon="5.58041">
        <ele>524</ele>
        <time>2026-05-25T07:28:09Z</time>
      </trkpt>
      <trkpt lat="45.39529" lon="5.58063">
        <ele>524</ele>
        <time>2026-05-25T07:28:13Z</time>
      </trkpt>
      <trkpt lat="45.39526" lon="5.58087">
        <ele>525</ele>
        <time>2026-05-25T07:28:17Z</time>
      </trkpt>
      <trkpt lat="45.39516" lon="5.58112">
        <ele>526</ele>
        <time>2026-05-25T07:28:22Z</time>
      </trkpt>
      <trkpt lat="45.39514" lon="5.58157">
        <ele>530</ele>
        <time>2026-05-25T07:28:29Z</time>
      </trkpt>
      <trkpt lat="45.39513" lon="5.58224">
        <ele>531</ele>
        <time>2026-05-25T07:28:40Z</time>
      </trkpt>
      <trkpt lat="45.39504" lon="5.58267">
        <ele>531</ele>
        <time>2026-05-25T07:28:48Z</time>
      </trkpt>
      <trkpt lat="45.39496" lon="5.58279">
        <ele>531</ele>
        <time>2026-05-25T07:28:50Z</time>
      </trkpt>
      <trkpt lat="45.39483" lon="5.58299">
        <ele>531</ele>
        <time>2026-05-25T07:28:55Z</time>
      </trkpt>
      <trkpt lat="45.39453" lon="5.58339">
        <ele>535</ele>
        <time>2026-05-25T07:29:04Z</time>
      </trkpt>
      <trkpt lat="45.39444" lon="5.58361">
        <ele>538</ele>
        <time>2026-05-25T07:29:09Z</time>
      </trkpt>
      <trkpt lat="45.39413" lon="5.58395">
        <ele>545</ele>
        <time>2026-05-25T07:29:18Z</time>
      </trkpt>
      <trkpt lat="45.39392" lon="5.58446">
        <ele>549</ele>
        <time>2026-05-25T07:29:27Z</time>
      </trkpt>
      <trkpt lat="45.39352" lon="5.58545">
        <ele>552</ele>
        <time>2026-05-25T07:29:46Z</time>
      </trkpt>
      <trkpt lat="45.39317" lon="5.58593">
        <ele>551</ele>
        <time>2026-05-25T07:29:57Z</time>
      </trkpt>
      <trkpt lat="45.39296" lon="5.58653">
        <ele>549</ele>
        <time>2026-05-25T07:30:08Z</time>
      </trkpt>
      <trkpt lat="45.39255" lon="5.58687">
        <ele>550</ele>
        <time>2026-05-25T07:30:20Z</time>
      </trkpt>
      <trkpt lat="45.39231" lon="5.5869">
        <ele>547</ele>
        <time>2026-05-25T07:30:25Z</time>
      </trkpt>
      <trkpt lat="45.39187" lon="5.58727">
        <ele>544</ele>
        <time>2026-05-25T07:30:37Z</time>
      </trkpt>
      <trkpt lat="45.39146" lon="5.5875">
        <ele>546</ele>
        <time>2026-05-25T07:30:47Z</time>
      </trkpt>
      <trkpt lat="45.39133" lon="5.58762">
        <ele>545</ele>
        <time>2026-05-25T07:30:51Z</time>
      </trkpt>
      <trkpt lat="45.39127" lon="5.58771">
        <ele>545</ele>
        <time>2026-05-25T07:30:53Z</time>
      </trkpt>
      <trkpt lat="45.39126" lon="5.5878">
        <ele>545</ele>
        <time>2026-05-25T07:30:55Z</time>
      </trkpt>
      <trkpt lat="45.39134" lon="5.58791">
        <ele>545</ele>
        <time>2026-05-25T07:30:57Z</time>
      </trkpt>
      <trkpt lat="45.39139" lon="5.58807">
        <ele>544</ele>
        <time>2026-05-25T07:31:00Z</time>
      </trkpt>
      <trkpt lat="45.39142" lon="5.58819">
        <ele>544</ele>
        <time>2026-05-25T07:31:02Z</time>
      </trkpt>
      <trkpt lat="45.39135" lon="5.58831">
        <ele>544</ele>
        <time>2026-05-25T07:31:05Z</time>
      </trkpt>
      <trkpt lat="45.39202" lon="5.58809">
        <ele>542</ele>
        <time>2026-05-25T07:31:21Z</time>
      </trkpt>
      <trkpt lat="45.39251" lon="5.58791">
        <ele>542</ele>
        <time>2026-05-25T07:31:33Z</time>
      </trkpt>
      <trkpt lat="45.39294" lon="5.58805">
        <ele>542</ele>
        <time>2026-05-25T07:31:43Z</time>
      </trkpt>
      <trkpt lat="45.39276" lon="5.58834">
        <ele>542</ele>
        <time>2026-05-25T07:31:49Z</time>
      </trkpt>
      <trkpt lat="45.39267" lon="5.58858">
        <ele>545</ele>
        <time>2026-05-25T07:31:54Z</time>
      </trkpt>
      <trkpt lat="45.39265" lon="5.58882">
        <ele>549</ele>
        <time>2026-05-25T07:31:58Z</time>
      </trkpt>
      <trkpt lat="45.39259" lon="5.58901">
        <ele>552</ele>
        <time>2026-05-25T07:32:01Z</time>
      </trkpt>
      <trkpt lat="45.39249" lon="5.58918">
        <ele>554</ele>
        <time>2026-05-25T07:32:05Z</time>
      </trkpt>
      <trkpt lat="45.39248" lon="5.58932">
        <ele>557</ele>
        <time>2026-05-25T07:32:07Z</time>
      </trkpt>
      <trkpt lat="45.39237" lon="5.58927">
        <ele>557</ele>
        <time>2026-05-25T07:32:10Z</time>
      </trkpt>
      <trkpt lat="45.39248" lon="5.58932">
        <ele>557</ele>
        <time>2026-05-25T07:32:12Z</time>
      </trkpt>
      <trkpt lat="45.39261" lon="5.58938">
        <ele>558</ele>
        <time>2026-05-25T07:32:16Z</time>
      </trkpt>
      <trkpt lat="45.3929" lon="5.58971">
        <ele>559</ele>
        <time>2026-05-25T07:32:24Z</time>
      </trkpt>
      <trkpt lat="45.39305" lon="5.5899">
        <ele>558</ele>
        <time>2026-05-25T07:32:29Z</time>
      </trkpt>
      <trkpt lat="45.39312" lon="5.59008">
        <ele>556</ele>
        <time>2026-05-25T07:32:32Z</time>
      </trkpt>
      <trkpt lat="45.39311" lon="5.59018">
        <ele>555</ele>
        <time>2026-05-25T07:32:34Z</time>
      </trkpt>
      <trkpt lat="45.39331" lon="5.59004">
        <ele>552</ele>
        <time>2026-05-25T07:32:39Z</time>
      </trkpt>
      <trkpt lat="45.39376" lon="5.5897">
        <ele>545</ele>
        <time>2026-05-25T07:32:51Z</time>
      </trkpt>
      <trkpt lat="45.39403" lon="5.58951">
        <ele>542</ele>
        <time>2026-05-25T07:32:58Z</time>
      </trkpt>
      <trkpt lat="45.39425" lon="5.58922">
        <ele>544</ele>
        <time>2026-05-25T07:33:05Z</time>
      </trkpt>
      <trkpt lat="45.3944" lon="5.58895">
        <ele>541</ele>
        <time>2026-05-25T07:33:11Z</time>
      </trkpt>
      <trkpt lat="45.3945" lon="5.58861">
        <ele>541</ele>
        <time>2026-05-25T07:33:17Z</time>
      </trkpt>
      <trkpt lat="45.39458" lon="5.58816">
        <ele>540</ele>
        <time>2026-05-25T07:33:24Z</time>
      </trkpt>
      <trkpt lat="45.39465" lon="5.58812">
        <ele>539</ele>
        <time>2026-05-25T07:33:26Z</time>
      </trkpt>
      <trkpt lat="45.39484" lon="5.58794">
        <ele>535</ele>
        <time>2026-05-25T07:33:31Z</time>
      </trkpt>
      <trkpt lat="45.39498" lon="5.58781">
        <ele>533</ele>
        <time>2026-05-25T07:33:35Z</time>
      </trkpt>
      <trkpt lat="45.39537" lon="5.58764">
        <ele>529</ele>
        <time>2026-05-25T07:33:45Z</time>
      </trkpt>
      <trkpt lat="45.39548" lon="5.58743">
        <ele>528</ele>
        <time>2026-05-25T07:33:49Z</time>
      </trkpt>
      <trkpt lat="45.39552" lon="5.58743">
        <ele>527</ele>
        <time>2026-05-25T07:33:50Z</time>
      </trkpt>
      <trkpt lat="45.39554" lon="5.58729">
        <ele>526</ele>
        <time>2026-05-25T07:33:52Z</time>
      </trkpt>
      <trkpt lat="45.39554" lon="5.58682">
        <ele>523</ele>
        <time>2026-05-25T07:34:00Z</time>
      </trkpt>
      <trkpt lat="45.39557" lon="5.58681">
        <ele>523</ele>
        <time>2026-05-25T07:34:01Z</time>
      </trkpt>
      <trkpt lat="45.39599" lon="5.58666">
        <ele>520</ele>
        <time>2026-05-25T07:34:11Z</time>
      </trkpt>
      <trkpt lat="45.39626" lon="5.58683">
        <ele>518</ele>
        <time>2026-05-25T07:34:18Z</time>
      </trkpt>
      <trkpt lat="45.39658" lon="5.58727">
        <ele>513</ele>
        <time>2026-05-25T07:34:28Z</time>
      </trkpt>
      <trkpt lat="45.39673" lon="5.58747">
        <ele>510</ele>
        <time>2026-05-25T07:34:33Z</time>
      </trkpt>
      <trkpt lat="45.39686" lon="5.58753">
        <ele>508</ele>
        <time>2026-05-25T07:34:36Z</time>
      </trkpt>
      <trkpt lat="45.39679" lon="5.5876">
        <ele>509</ele>
        <time>2026-05-25T07:34:38Z</time>
      </trkpt>
      <trkpt lat="45.39634" lon="5.58819">
        <ele>511</ele>
        <time>2026-05-25T07:34:53Z</time>
      </trkpt>
      <trkpt lat="45.39594" lon="5.58851">
        <ele>514</ele>
        <time>2026-05-25T07:35:03Z</time>
      </trkpt>
      <trkpt lat="45.39586" lon="5.58857">
        <ele>514</ele>
        <time>2026-05-25T07:35:05Z</time>
      </trkpt>
      <trkpt lat="45.39525" lon="5.58919">
        <ele>518</ele>
        <time>2026-05-25T07:35:23Z</time>
      </trkpt>
      <trkpt lat="45.39475" lon="5.58978">
        <ele>519</ele>
        <time>2026-05-25T07:35:38Z</time>
      </trkpt>
      <trkpt lat="45.39411" lon="5.59075">
        <ele>518</ele>
        <time>2026-05-25T07:36:00Z</time>
      </trkpt>
      <trkpt lat="45.39398" lon="5.59093">
        <ele>520</ele>
        <time>2026-05-25T07:36:04Z</time>
      </trkpt>
      <trkpt lat="45.39366" lon="5.59133">
        <ele>524</ele>
        <time>2026-05-25T07:36:14Z</time>
      </trkpt>
      <trkpt lat="45.39324" lon="5.59187">
        <ele>524</ele>
        <time>2026-05-25T07:36:27Z</time>
      </trkpt>
      <trkpt lat="45.39291" lon="5.59209">
        <ele>527</ele>
        <time>2026-05-25T07:36:36Z</time>
      </trkpt>
      <trkpt lat="45.39302" lon="5.59238">
        <ele>523</ele>
        <time>2026-05-25T07:36:41Z</time>
      </trkpt>
      <trkpt lat="45.39262" lon="5.5929">
        <ele>524</ele>
        <time>2026-05-25T07:36:54Z</time>
      </trkpt>
      <trkpt lat="45.39214" lon="5.5933">
        <ele>522</ele>
        <time>2026-05-25T07:37:07Z</time>
      </trkpt>
      <trkpt lat="45.39134" lon="5.59371">
        <ele>525</ele>
        <time>2026-05-25T07:37:27Z</time>
      </trkpt>
      <trkpt lat="45.39076" lon="5.59412">
        <ele>521</ele>
        <time>2026-05-25T07:37:42Z</time>
      </trkpt>
      <trkpt lat="45.3906" lon="5.59449">
        <ele>524</ele>
        <time>2026-05-25T07:37:49Z</time>
      </trkpt>
      <trkpt lat="45.39048" lon="5.5947">
        <ele>525</ele>
        <time>2026-05-25T07:37:53Z</time>
      </trkpt>
      <trkpt lat="45.3901" lon="5.59469">
        <ele>522</ele>
        <time>2026-05-25T07:38:02Z</time>
      </trkpt>
      <trkpt lat="45.38989" lon="5.59484">
        <ele>521</ele>
        <time>2026-05-25T07:38:08Z</time>
      </trkpt>
      <trkpt lat="45.38962" lon="5.59517">
        <ele>522</ele>
        <time>2026-05-25T07:38:16Z</time>
      </trkpt>
      <trkpt lat="45.38936" lon="5.59533">
        <ele>522</ele>
        <time>2026-05-25T07:38:23Z</time>
      </trkpt>
      <trkpt lat="45.38923" lon="5.59547">
        <ele>522</ele>
        <time>2026-05-25T07:38:26Z</time>
      </trkpt>
      <trkpt lat="45.38903" lon="5.59599">
        <ele>527</ele>
        <time>2026-05-25T07:38:36Z</time>
      </trkpt>
      <trkpt lat="45.38896" lon="5.59607">
        <ele>528</ele>
        <time>2026-05-25T07:38:38Z</time>
      </trkpt>
      <trkpt lat="45.38883" lon="5.59618">
        <ele>529</ele>
        <time>2026-05-25T07:38:42Z</time>
      </trkpt>
      <trkpt lat="45.38857" lon="5.59621">
        <ele>528</ele>
        <time>2026-05-25T07:38:48Z</time>
      </trkpt>
      <trkpt lat="45.38816" lon="5.59617">
        <ele>525</ele>
        <time>2026-05-25T07:38:57Z</time>
      </trkpt>
      <trkpt lat="45.38791" lon="5.59617">
        <ele>523</ele>
        <time>2026-05-25T07:39:03Z</time>
      </trkpt>
      <trkpt lat="45.38767" lon="5.59685">
        <ele>533</ele>
        <time>2026-05-25T07:39:16Z</time>
      </trkpt>
      <trkpt lat="45.38742" lon="5.59727">
        <ele>538</ele>
        <time>2026-05-25T07:39:25Z</time>
      </trkpt>
      <trkpt lat="45.38737" lon="5.59738">
        <ele>539</ele>
        <time>2026-05-25T07:39:27Z</time>
      </trkpt>
      <trkpt lat="45.38721" lon="5.59748">
        <ele>539</ele>
        <time>2026-05-25T07:39:31Z</time>
      </trkpt>
      <trkpt lat="45.38698" lon="5.59784">
        <ele>541</ele>
        <time>2026-05-25T07:39:39Z</time>
      </trkpt>
      <trkpt lat="45.38653" lon="5.5981">
        <ele>539</ele>
        <time>2026-05-25T07:39:50Z</time>
      </trkpt>
      <trkpt lat="45.38629" lon="5.59838">
        <ele>543</ele>
        <time>2026-05-25T07:39:58Z</time>
      </trkpt>
      <trkpt lat="45.38626" lon="5.59847">
        <ele>545</ele>
        <time>2026-05-25T07:39:59Z</time>
      </trkpt>
      <trkpt lat="45.38593" lon="5.59858">
        <ele>548</ele>
        <time>2026-05-25T07:40:07Z</time>
      </trkpt>
      <trkpt lat="45.38571" lon="5.59868">
        <ele>550</ele>
        <time>2026-05-25T07:40:13Z</time>
      </trkpt>
      <trkpt lat="45.38534" lon="5.59879">
        <ele>551</ele>
        <time>2026-05-25T07:40:21Z</time>
      </trkpt>
      <trkpt lat="45.38506" lon="5.59886">
        <ele>552</ele>
        <time>2026-05-25T07:40:28Z</time>
      </trkpt>
      <trkpt lat="45.38477" lon="5.59899">
        <ele>551</ele>
        <time>2026-05-25T07:40:35Z</time>
      </trkpt>
      <trkpt lat="45.38441" lon="5.59923">
        <ele>548</ele>
        <time>2026-05-25T07:40:44Z</time>
      </trkpt>
      <trkpt lat="45.38422" lon="5.59927">
        <ele>546</ele>
        <time>2026-05-25T07:40:49Z</time>
      </trkpt>
      <trkpt lat="45.38416" lon="5.59927">
        <ele>545</ele>
        <time>2026-05-25T07:40:50Z</time>
      </trkpt>
      <trkpt lat="45.38393" lon="5.59922">
        <ele>545</ele>
        <time>2026-05-25T07:40:56Z</time>
      </trkpt>
      <trkpt lat="45.38381" lon="5.59917">
        <ele>545</ele>
        <time>2026-05-25T07:40:59Z</time>
      </trkpt>
      <trkpt lat="45.38373" lon="5.5991">
        <ele>545</ele>
        <time>2026-05-25T07:41:01Z</time>
      </trkpt>
      <trkpt lat="45.38377" lon="5.59899">
        <ele>544</ele>
        <time>2026-05-25T07:41:03Z</time>
      </trkpt>
      <trkpt lat="45.38369" lon="5.59898">
        <ele>544</ele>
        <time>2026-05-25T07:41:05Z</time>
      </trkpt>
      <trkpt lat="45.38348" lon="5.59898">
        <ele>545</ele>
        <time>2026-05-25T07:41:10Z</time>
      </trkpt>
      <trkpt lat="45.38336" lon="5.59899">
        <ele>546</ele>
        <time>2026-05-25T07:41:12Z</time>
      </trkpt>
      <trkpt lat="45.38314" lon="5.59906">
        <ele>550</ele>
        <time>2026-05-25T07:41:18Z</time>
      </trkpt>
      <trkpt lat="45.38309" lon="5.59906">
        <ele>551</ele>
        <time>2026-05-25T07:41:19Z</time>
      </trkpt>
      <trkpt lat="45.38279" lon="5.59895">
        <ele>557</ele>
        <time>2026-05-25T07:41:26Z</time>
      </trkpt>
      <trkpt lat="45.38261" lon="5.5988">
        <ele>560</ele>
        <time>2026-05-25T07:41:31Z</time>
      </trkpt>
      <trkpt lat="45.38248" lon="5.59871">
        <ele>562</ele>
        <time>2026-05-25T07:41:34Z</time>
      </trkpt>
      <trkpt lat="45.38233" lon="5.59868">
        <ele>566</ele>
        <time>2026-05-25T07:41:38Z</time>
      </trkpt>
      <trkpt lat="45.38224" lon="5.5987">
        <ele>569</ele>
        <time>2026-05-25T07:41:40Z</time>
      </trkpt>
      <trkpt lat="45.38219" lon="5.59878">
        <ele>571</ele>
        <time>2026-05-25T07:41:42Z</time>
      </trkpt>
      <trkpt lat="45.38214" lon="5.59899">
        <ele>575</ele>
        <time>2026-05-25T07:41:45Z</time>
      </trkpt>
      <trkpt lat="45.38212" lon="5.59905">
        <ele>576</ele>
        <time>2026-05-25T07:41:47Z</time>
      </trkpt>
      <trkpt lat="45.38206" lon="5.59932">
        <ele>581</ele>
        <time>2026-05-25T07:41:51Z</time>
      </trkpt>
      <trkpt lat="45.38195" lon="5.59963">
        <ele>590</ele>
        <time>2026-05-25T07:41:57Z</time>
      </trkpt>
      <trkpt lat="45.38185" lon="5.60004">
        <ele>601</ele>
        <time>2026-05-25T07:42:04Z</time>
      </trkpt>
      <trkpt lat="45.38176" lon="5.60026">
        <ele>607</ele>
        <time>2026-05-25T07:42:08Z</time>
      </trkpt>
      <trkpt lat="45.38173" lon="5.60054">
        <ele>611</ele>
        <time>2026-05-25T07:42:13Z</time>
      </trkpt>
      <trkpt lat="45.38166" lon="5.60093">
        <ele>618</ele>
        <time>2026-05-25T07:42:19Z</time>
      </trkpt>
      <trkpt lat="45.38167" lon="5.60133">
        <ele>623</ele>
        <time>2026-05-25T07:42:26Z</time>
      </trkpt>
      <trkpt lat="45.38169" lon="5.60165">
        <ele>627</ele>
        <time>2026-05-25T07:42:31Z</time>
      </trkpt>
      <trkpt lat="45.38174" lon="5.6018">
        <ele>628</ele>
        <time>2026-05-25T07:42:34Z</time>
      </trkpt>
      <trkpt lat="45.38187" lon="5.60202">
        <ele>627</ele>
        <time>2026-05-25T07:42:39Z</time>
      </trkpt>
      <trkpt lat="45.38189" lon="5.60213">
        <ele>628</ele>
        <time>2026-05-25T07:42:41Z</time>
      </trkpt>
      <trkpt lat="45.38188" lon="5.60222">
        <ele>629</ele>
        <time>2026-05-25T07:42:42Z</time>
      </trkpt>
      <trkpt lat="45.38182" lon="5.60229">
        <ele>632</ele>
        <time>2026-05-25T07:42:44Z</time>
      </trkpt>
      <trkpt lat="45.38163" lon="5.60231">
        <ele>638</ele>
        <time>2026-05-25T07:42:48Z</time>
      </trkpt>
      <trkpt lat="45.38158" lon="5.60233">
        <ele>640</ele>
        <time>2026-05-25T07:42:50Z</time>
      </trkpt>
      <trkpt lat="45.38151" lon="5.60249">
        <ele>644</ele>
        <time>2026-05-25T07:42:53Z</time>
      </trkpt>
      <trkpt lat="45.38143" lon="5.60269">
        <ele>646</ele>
        <time>2026-05-25T07:42:56Z</time>
      </trkpt>
      <trkpt lat="45.38131" lon="5.60301">
        <ele>648</ele>
        <time>2026-05-25T07:43:02Z</time>
      </trkpt>
      <trkpt lat="45.38122" lon="5.60316">
        <ele>651</ele>
        <time>2026-05-25T07:43:06Z</time>
      </trkpt>
      <trkpt lat="45.3812" lon="5.60327">
        <ele>651</ele>
        <time>2026-05-25T07:43:07Z</time>
      </trkpt>
      <trkpt lat="45.38121" lon="5.60374">
        <ele>648</ele>
        <time>2026-05-25T07:43:15Z</time>
      </trkpt>
      <trkpt lat="45.38118" lon="5.60427">
        <ele>646</ele>
        <time>2026-05-25T07:43:24Z</time>
      </trkpt>
      <trkpt lat="45.38118" lon="5.60448">
        <ele>645</ele>
        <time>2026-05-25T07:43:27Z</time>
      </trkpt>
      <trkpt lat="45.38115" lon="5.60496">
        <ele>643</ele>
        <time>2026-05-25T07:43:35Z</time>
      </trkpt>
      <trkpt lat="45.38113" lon="5.60519">
        <ele>642</ele>
        <time>2026-05-25T07:43:39Z</time>
      </trkpt>
      <trkpt lat="45.38108" lon="5.60536">
        <ele>643</ele>
        <time>2026-05-25T07:43:42Z</time>
      </trkpt>
      <trkpt lat="45.381" lon="5.60543">
        <ele>645</ele>
        <time>2026-05-25T07:43:44Z</time>
      </trkpt>
      <trkpt lat="45.38083" lon="5.60552">
        <ele>649</ele>
        <time>2026-05-25T07:43:48Z</time>
      </trkpt>
      <trkpt lat="45.3806" lon="5.60556">
        <ele>656</ele>
        <time>2026-05-25T07:43:54Z</time>
      </trkpt>
      <trkpt lat="45.38033" lon="5.60563">
        <ele>663</ele>
        <time>2026-05-25T07:44:00Z</time>
      </trkpt>
      <trkpt lat="45.38019" lon="5.60574">
        <ele>666</ele>
        <time>2026-05-25T07:44:04Z</time>
      </trkpt>
      <trkpt lat="45.38" lon="5.60581">
        <ele>669</ele>
        <time>2026-05-25T07:44:09Z</time>
      </trkpt>
      <trkpt lat="45.37987" lon="5.60591">
        <ele>671</ele>
        <time>2026-05-25T07:44:12Z</time>
      </trkpt>
      <trkpt lat="45.37976" lon="5.60594">
        <ele>674</ele>
        <time>2026-05-25T07:44:15Z</time>
      </trkpt>
      <trkpt lat="45.37969" lon="5.60591">
        <ele>676</ele>
        <time>2026-05-25T07:44:16Z</time>
      </trkpt>
      <trkpt lat="45.37964" lon="5.60584">
        <ele>678</ele>
        <time>2026-05-25T07:44:18Z</time>
      </trkpt>
      <trkpt lat="45.3796" lon="5.6055">
        <ele>686</ele>
        <time>2026-05-25T07:44:24Z</time>
      </trkpt>
      <trkpt lat="45.3796" lon="5.60519">
        <ele>694</ele>
        <time>2026-05-25T07:44:29Z</time>
      </trkpt>
      <trkpt lat="45.3796" lon="5.60482">
        <ele>701</ele>
        <time>2026-05-25T07:44:35Z</time>
      </trkpt>
      <trkpt lat="45.37956" lon="5.60414">
        <ele>713</ele>
        <time>2026-05-25T07:44:46Z</time>
      </trkpt>
      <trkpt lat="45.37947" lon="5.60367">
        <ele>719</ele>
        <time>2026-05-25T07:44:54Z</time>
      </trkpt>
      <trkpt lat="45.37939" lon="5.60337">
        <ele>724</ele>
        <time>2026-05-25T07:44:59Z</time>
      </trkpt>
      <trkpt lat="45.37919" lon="5.60316">
        <ele>732</ele>
        <time>2026-05-25T07:45:05Z</time>
      </trkpt>
      <trkpt lat="45.37896" lon="5.60298">
        <ele>734</ele>
        <time>2026-05-25T07:45:11Z</time>
      </trkpt>
      <trkpt lat="45.37876" lon="5.6029">
        <ele>736</ele>
        <time>2026-05-25T07:45:16Z</time>
      </trkpt>
      <trkpt lat="45.37863" lon="5.60294">
        <ele>737</ele>
        <time>2026-05-25T07:45:19Z</time>
      </trkpt>
      <trkpt lat="45.37845" lon="5.60296">
        <ele>739</ele>
        <time>2026-05-25T07:45:23Z</time>
      </trkpt>
      <trkpt lat="45.37832" lon="5.60271">
        <ele>740</ele>
        <time>2026-05-25T07:45:28Z</time>
      </trkpt>
      <trkpt lat="45.37819" lon="5.60258">
        <ele>739</ele>
        <time>2026-05-25T07:45:32Z</time>
      </trkpt>
      <trkpt lat="45.37809" lon="5.60252">
        <ele>738</ele>
        <time>2026-05-25T07:45:35Z</time>
      </trkpt>
      <trkpt lat="45.37801" lon="5.60249">
        <ele>737</ele>
        <time>2026-05-25T07:45:37Z</time>
      </trkpt>
      <trkpt lat="45.37795" lon="5.60244">
        <ele>736</ele>
        <time>2026-05-25T07:45:38Z</time>
      </trkpt>
      <trkpt lat="45.37776" lon="5.60223">
        <ele>734</ele>
        <time>2026-05-25T07:45:44Z</time>
      </trkpt>
      <trkpt lat="45.37769" lon="5.6022">
        <ele>733</ele>
        <time>2026-05-25T07:45:46Z</time>
      </trkpt>
      <trkpt lat="45.37764" lon="5.60219">
        <ele>733</ele>
        <time>2026-05-25T07:45:47Z</time>
      </trkpt>
      <trkpt lat="45.37756" lon="5.60214">
        <ele>732</ele>
        <time>2026-05-25T07:45:49Z</time>
      </trkpt>
      <trkpt lat="45.37747" lon="5.60198">
        <ele>731</ele>
        <time>2026-05-25T07:45:52Z</time>
      </trkpt>
      <trkpt lat="45.37745" lon="5.60185">
        <ele>731</ele>
        <time>2026-05-25T07:45:54Z</time>
      </trkpt>
      <trkpt lat="45.37736" lon="5.60156">
        <ele>729</ele>
        <time>2026-05-25T07:46:00Z</time>
      </trkpt>
      <trkpt lat="45.37721" lon="5.60145">
        <ele>725</ele>
        <time>2026-05-25T07:46:04Z</time>
      </trkpt>
      <trkpt lat="45.37707" lon="5.60143">
        <ele>722</ele>
        <time>2026-05-25T07:46:07Z</time>
      </trkpt>
      <trkpt lat="45.37704" lon="5.60138">
        <ele>721</ele>
        <time>2026-05-25T07:46:08Z</time>
      </trkpt>
      <trkpt lat="45.37703" lon="5.60122">
        <ele>721</ele>
        <time>2026-05-25T07:46:11Z</time>
      </trkpt>
      <trkpt lat="45.37701" lon="5.60119">
        <ele>721</ele>
        <time>2026-05-25T07:46:11Z</time>
      </trkpt>
      <trkpt lat="45.37699" lon="5.60114">
        <ele>720</ele>
        <time>2026-05-25T07:46:12Z</time>
      </trkpt>
      <trkpt lat="45.37699" lon="5.60105">
        <ele>720</ele>
        <time>2026-05-25T07:46:14Z</time>
      </trkpt>
      <trkpt lat="45.37695" lon="5.60096">
        <ele>720</ele>
        <time>2026-05-25T07:46:15Z</time>
      </trkpt>
      <trkpt lat="45.37686" lon="5.60101">
        <ele>718</ele>
        <time>2026-05-25T07:46:18Z</time>
      </trkpt>
      <trkpt lat="45.37674" lon="5.60103">
        <ele>716</ele>
        <time>2026-05-25T07:46:20Z</time>
      </trkpt>
      <trkpt lat="45.37666" lon="5.60108">
        <ele>714</ele>
        <time>2026-05-25T07:46:22Z</time>
      </trkpt>
      <trkpt lat="45.37659" lon="5.60124">
        <ele>710</ele>
        <time>2026-05-25T07:46:26Z</time>
      </trkpt>
      <trkpt lat="45.37645" lon="5.60147">
        <ele>702</ele>
        <time>2026-05-25T07:46:31Z</time>
      </trkpt>
      <trkpt lat="45.3764" lon="5.60158">
        <ele>699</ele>
        <time>2026-05-25T07:46:33Z</time>
      </trkpt>
      <trkpt lat="45.3764" lon="5.60167">
        <ele>699</ele>
        <time>2026-05-25T07:46:34Z</time>
      </trkpt>
      <trkpt lat="45.37641" lon="5.60182">
        <ele>697</ele>
        <time>2026-05-25T07:46:37Z</time>
      </trkpt>
      <trkpt lat="45.37647" lon="5.60206">
        <ele>697</ele>
        <time>2026-05-25T07:46:41Z</time>
      </trkpt>
      <trkpt lat="45.37647" lon="5.60227">
        <ele>694</ele>
        <time>2026-05-25T07:46:44Z</time>
      </trkpt>
      <trkpt lat="45.37637" lon="5.6026">
        <ele>685</ele>
        <time>2026-05-25T07:46:50Z</time>
      </trkpt>
      <trkpt lat="45.37632" lon="5.60298">
        <ele>678</ele>
        <time>2026-05-25T07:46:57Z</time>
      </trkpt>
      <trkpt lat="45.37631" lon="5.60313">
        <ele>676</ele>
        <time>2026-05-25T07:46:59Z</time>
      </trkpt>
      <trkpt lat="45.37625" lon="5.60342">
        <ele>670</ele>
        <time>2026-05-25T07:47:04Z</time>
      </trkpt>
      <trkpt lat="45.37617" lon="5.6039">
        <ele>663</ele>
        <time>2026-05-25T07:47:12Z</time>
      </trkpt>
      <trkpt lat="45.37617" lon="5.6039">
        <ele>663</ele>
        <time>2026-05-25T07:47:12Z</time>
      </trkpt>
      <trkpt lat="45.37595" lon="5.60431">
        <ele>650</ele>
        <time>2026-05-25T07:47:21Z</time>
      </trkpt>
      <trkpt lat="45.37588" lon="5.6044">
        <ele>646</ele>
        <time>2026-05-25T07:47:23Z</time>
      </trkpt>
      <trkpt lat="45.37572" lon="5.6049">
        <ele>636</ele>
        <time>2026-05-25T07:47:32Z</time>
      </trkpt>
      <trkpt lat="45.37568" lon="5.60511">
        <ele>634</ele>
        <time>2026-05-25T07:47:35Z</time>
      </trkpt>
      <trkpt lat="45.37536" lon="5.60562">
        <ele>623</ele>
        <time>2026-05-25T07:47:47Z</time>
      </trkpt>
      <trkpt lat="45.37528" lon="5.60565">
        <ele>620</ele>
        <time>2026-05-25T07:47:48Z</time>
      </trkpt>
      <trkpt lat="45.3752" lon="5.60539">
        <ele>618</ele>
        <time>2026-05-25T07:47:53Z</time>
      </trkpt>
      <trkpt lat="45.37509" lon="5.60505">
        <ele>616</ele>
        <time>2026-05-25T07:47:59Z</time>
      </trkpt>
      <trkpt lat="45.37499" lon="5.60496">
        <ele>614</ele>
        <time>2026-05-25T07:48:02Z</time>
      </trkpt>
      <trkpt lat="45.37479" lon="5.60499">
        <ele>608</ele>
        <time>2026-05-25T07:48:07Z</time>
      </trkpt>
      <trkpt lat="45.37483" lon="5.60515">
        <ele>609</ele>
        <time>2026-05-25T07:48:10Z</time>
      </trkpt>
      <trkpt lat="45.37476" lon="5.60546">
        <ele>605</ele>
        <time>2026-05-25T07:48:15Z</time>
      </trkpt>
      <trkpt lat="45.37465" lon="5.60633">
        <ele>601</ele>
        <time>2026-05-25T07:48:29Z</time>
      </trkpt>
      <trkpt lat="45.37455" lon="5.60669">
        <ele>599</ele>
        <time>2026-05-25T07:48:36Z</time>
      </trkpt>
      <trkpt lat="45.37454" lon="5.6072">
        <ele>598</ele>
        <time>2026-05-25T07:48:44Z</time>
      </trkpt>
      <trkpt lat="45.37455" lon="5.60763">
        <ele>596</ele>
        <time>2026-05-25T07:48:51Z</time>
      </trkpt>
      <trkpt lat="45.37439" lon="5.60802">
        <ele>588</ele>
        <time>2026-05-25T07:48:59Z</time>
      </trkpt>
      <trkpt lat="45.3742" lon="5.60859">
        <ele>575</ele>
        <time>2026-05-25T07:49:09Z</time>
      </trkpt>
      <trkpt lat="45.37407" lon="5.60931">
        <ele>560</ele>
        <time>2026-05-25T07:49:21Z</time>
      </trkpt>
      <trkpt lat="45.37407" lon="5.60949">
        <ele>557</ele>
        <time>2026-05-25T07:49:24Z</time>
      </trkpt>
      <trkpt lat="45.37405" lon="5.60965">
        <ele>553</ele>
        <time>2026-05-25T07:49:27Z</time>
      </trkpt>
      <trkpt lat="45.37409" lon="5.60973">
        <ele>553</ele>
        <time>2026-05-25T07:49:28Z</time>
      </trkpt>
      <trkpt lat="45.37418" lon="5.60983">
        <ele>554</ele>
        <time>2026-05-25T07:49:31Z</time>
      </trkpt>
      <trkpt lat="45.37444" lon="5.60998">
        <ele>555</ele>
        <time>2026-05-25T07:49:38Z</time>
      </trkpt>
      <trkpt lat="45.37464" lon="5.61022">
        <ele>547</ele>
        <time>2026-05-25T07:49:44Z</time>
      </trkpt>
      <trkpt lat="45.37473" lon="5.61037">
        <ele>540</ele>
        <time>2026-05-25T07:49:47Z</time>
      </trkpt>
      <trkpt lat="45.37495" lon="5.61054">
        <ele>533</ele>
        <time>2026-05-25T07:49:53Z</time>
      </trkpt>
      <trkpt lat="45.37505" lon="5.61066">
        <ele>528</ele>
        <time>2026-05-25T07:49:56Z</time>
      </trkpt>
      <trkpt lat="45.37511" lon="5.61078">
        <ele>522</ele>
        <time>2026-05-25T07:49:58Z</time>
      </trkpt>
      <trkpt lat="45.37514" lon="5.61088">
        <ele>518</ele>
        <time>2026-05-25T07:50:00Z</time>
      </trkpt>
      <trkpt lat="45.37514" lon="5.61102">
        <ele>514</ele>
        <time>2026-05-25T07:50:02Z</time>
      </trkpt>
      <trkpt lat="45.37514" lon="5.61106">
        <ele>513</ele>
        <time>2026-05-25T07:50:03Z</time>
      </trkpt>
      <trkpt lat="45.37517" lon="5.61124">
        <ele>508</ele>
        <time>2026-05-25T07:50:06Z</time>
      </trkpt>
      <trkpt lat="45.37531" lon="5.61164">
        <ele>498</ele>
        <time>2026-05-25T07:50:13Z</time>
      </trkpt>
      <trkpt lat="45.37534" lon="5.61171">
        <ele>497</ele>
        <time>2026-05-25T07:50:15Z</time>
      </trkpt>
      <trkpt lat="45.37544" lon="5.61178">
        <ele>497</ele>
        <time>2026-05-25T07:50:17Z</time>
      </trkpt>
      <trkpt lat="45.37556" lon="5.61191">
        <ele>497</ele>
        <time>2026-05-25T07:50:21Z</time>
      </trkpt>
      <trkpt lat="45.37559" lon="5.61202">
        <ele>496</ele>
        <time>2026-05-25T07:50:23Z</time>
      </trkpt>
      <trkpt lat="45.37567" lon="5.61217">
        <ele>495</ele>
        <time>2026-05-25T07:50:26Z</time>
      </trkpt>
      <trkpt lat="45.37571" lon="5.6123">
        <ele>494</ele>
        <time>2026-05-25T07:50:28Z</time>
      </trkpt>
      <trkpt lat="45.37574" lon="5.61244">
        <ele>493</ele>
        <time>2026-05-25T07:50:31Z</time>
      </trkpt>
      <trkpt lat="45.37579" lon="5.61277">
        <ele>495</ele>
        <time>2026-05-25T07:50:36Z</time>
      </trkpt>
      <trkpt lat="45.37584" lon="5.61304">
        <ele>498</ele>
        <time>2026-05-25T07:50:41Z</time>
      </trkpt>
      <trkpt lat="45.37585" lon="5.61315">
        <ele>499</ele>
        <time>2026-05-25T07:50:42Z</time>
      </trkpt>
      <trkpt lat="45.37615" lon="5.61283">
        <ele>502</ele>
        <time>2026-05-25T07:50:51Z</time>
      </trkpt>
      <trkpt lat="45.37635" lon="5.61272">
        <ele>504</ele>
        <time>2026-05-25T07:50:56Z</time>
      </trkpt>
      <trkpt lat="45.37676" lon="5.61243">
        <ele>508</ele>
        <time>2026-05-25T07:51:07Z</time>
      </trkpt>
      <trkpt lat="45.37729" lon="5.61201">
        <ele>516</ele>
        <time>2026-05-25T07:51:21Z</time>
      </trkpt>
      <trkpt lat="45.3775" lon="5.6119">
        <ele>518</ele>
        <time>2026-05-25T07:51:26Z</time>
      </trkpt>
      <trkpt lat="45.37783" lon="5.61179">
        <ele>521</ele>
        <time>2026-05-25T07:51:34Z</time>
      </trkpt>
      <trkpt lat="45.37817" lon="5.61172">
        <ele>523</ele>
        <time>2026-05-25T07:51:42Z</time>
      </trkpt>
      <trkpt lat="45.37834" lon="5.61173">
        <ele>525</ele>
        <time>2026-05-25T07:51:46Z</time>
      </trkpt>
      <trkpt lat="45.37873" lon="5.6116">
        <ele>526</ele>
        <time>2026-05-25T07:51:56Z</time>
      </trkpt>
      <trkpt lat="45.37891" lon="5.61158">
        <ele>526</ele>
        <time>2026-05-25T07:52:00Z</time>
      </trkpt>
      <trkpt lat="45.3793" lon="5.61161">
        <ele>526</ele>
        <time>2026-05-25T07:52:09Z</time>
      </trkpt>
      <trkpt lat="45.37952" lon="5.61162">
        <ele>526</ele>
        <time>2026-05-25T07:52:14Z</time>
      </trkpt>
      <trkpt lat="45.37969" lon="5.61159">
        <ele>527</ele>
        <time>2026-05-25T07:52:18Z</time>
      </trkpt>
      <trkpt lat="45.37986" lon="5.61152">
        <ele>527</ele>
        <time>2026-05-25T07:52:22Z</time>
      </trkpt>
      <trkpt lat="45.38006" lon="5.61139">
        <ele>527</ele>
        <time>2026-05-25T07:52:27Z</time>
      </trkpt>
      <trkpt lat="45.38063" lon="5.61108">
        <ele>526</ele>
        <time>2026-05-25T07:52:42Z</time>
      </trkpt>
      <trkpt lat="45.3807" lon="5.61107">
        <ele>526</ele>
        <time>2026-05-25T07:52:43Z</time>
      </trkpt>
      <trkpt lat="45.38075" lon="5.61106">
        <ele>526</ele>
        <time>2026-05-25T07:52:44Z</time>
      </trkpt>
      <trkpt lat="45.38089" lon="5.61109">
        <ele>526</ele>
        <time>2026-05-25T07:52:48Z</time>
      </trkpt>
      <trkpt lat="45.38145" lon="5.61141">
        <ele>521</ele>
        <time>2026-05-25T07:53:02Z</time>
      </trkpt>
      <trkpt lat="45.38183" lon="5.61157">
        <ele>517</ele>
        <time>2026-05-25T07:53:11Z</time>
      </trkpt>
      <trkpt lat="45.3822" lon="5.61168">
        <ele>514</ele>
        <time>2026-05-25T07:53:20Z</time>
      </trkpt>
      <trkpt lat="45.38233" lon="5.61173">
        <ele>513</ele>
        <time>2026-05-25T07:53:23Z</time>
      </trkpt>
      <trkpt lat="45.3827" lon="5.61197">
        <ele>513</ele>
        <time>2026-05-25T07:53:33Z</time>
      </trkpt>
      <trkpt lat="45.38314" lon="5.6123">
        <ele>513</ele>
        <time>2026-05-25T07:53:44Z</time>
      </trkpt>
      <trkpt lat="45.38319" lon="5.61236">
        <ele>513</ele>
        <time>2026-05-25T07:53:46Z</time>
      </trkpt>
      <trkpt lat="45.3832" lon="5.61248">
        <ele>513</ele>
        <time>2026-05-25T07:53:48Z</time>
      </trkpt>
      <trkpt lat="45.38317" lon="5.61291">
        <ele>513</ele>
        <time>2026-05-25T07:53:55Z</time>
      </trkpt>
      <trkpt lat="45.38315" lon="5.61389">
        <ele>511</ele>
        <time>2026-05-25T07:54:11Z</time>
      </trkpt>
      <trkpt lat="45.38317" lon="5.61407">
        <ele>511</ele>
        <time>2026-05-25T07:54:14Z</time>
      </trkpt>
      <trkpt lat="45.38299" lon="5.61411">
        <ele>513</ele>
        <time>2026-05-25T07:54:18Z</time>
      </trkpt>
      <trkpt lat="45.38275" lon="5.61408">
        <ele>516</ele>
        <time>2026-05-25T07:54:24Z</time>
      </trkpt>
      <trkpt lat="45.38262" lon="5.61413">
        <ele>517</ele>
        <time>2026-05-25T07:54:27Z</time>
      </trkpt>
      <trkpt lat="45.38246" lon="5.61436">
        <ele>522</ele>
        <time>2026-05-25T07:54:32Z</time>
      </trkpt>
      <trkpt lat="45.38245" lon="5.61478">
        <ele>525</ele>
        <time>2026-05-25T07:54:39Z</time>
      </trkpt>
      <trkpt lat="45.38245" lon="5.61518">
        <ele>526</ele>
        <time>2026-05-25T07:54:46Z</time>
      </trkpt>
      <trkpt lat="45.38239" lon="5.61563">
        <ele>527</ele>
        <time>2026-05-25T07:54:53Z</time>
      </trkpt>
      <trkpt lat="45.38232" lon="5.61588">
        <ele>530</ele>
        <time>2026-05-25T07:54:58Z</time>
      </trkpt>
      <trkpt lat="45.3822" lon="5.61615">
        <ele>533</ele>
        <time>2026-05-25T07:55:03Z</time>
      </trkpt>
      <trkpt lat="45.38212" lon="5.61632">
        <ele>536</ele>
        <time>2026-05-25T07:55:06Z</time>
      </trkpt>
      <trkpt lat="45.38205" lon="5.61635">
        <ele>539</ele>
        <time>2026-05-25T07:55:08Z</time>
      </trkpt>
      <trkpt lat="45.38182" lon="5.61696">
        <ele>542</ele>
        <time>2026-05-25T07:55:19Z</time>
      </trkpt>
      <trkpt lat="45.38178" lon="5.61702">
        <ele>543</ele>
        <time>2026-05-25T07:55:21Z</time>
      </trkpt>
      <trkpt lat="45.38143" lon="5.61749">
        <ele>546</ele>
        <time>2026-05-25T07:55:32Z</time>
      </trkpt>
      <trkpt lat="45.38109" lon="5.6178">
        <ele>550</ele>
        <time>2026-05-25T07:55:41Z</time>
      </trkpt>
      <trkpt lat="45.38084" lon="5.61799">
        <ele>552</ele>
        <time>2026-05-25T07:55:48Z</time>
      </trkpt>
      <trkpt lat="45.38048" lon="5.61804">
        <ele>561</ele>
        <time>2026-05-25T07:55:56Z</time>
      </trkpt>
      <trkpt lat="45.38025" lon="5.61818">
        <ele>563</ele>
        <time>2026-05-25T07:56:02Z</time>
      </trkpt>
      <trkpt lat="45.3799" lon="5.61858">
        <ele>562</ele>
        <time>2026-05-25T07:56:13Z</time>
      </trkpt>
      <trkpt lat="45.37957" lon="5.61901">
        <ele>563</ele>
        <time>2026-05-25T07:56:23Z</time>
      </trkpt>
      <trkpt lat="45.37913" lon="5.6197">
        <ele>563</ele>
        <time>2026-05-25T07:56:38Z</time>
      </trkpt>
      <trkpt lat="45.37894" lon="5.62006">
        <ele>563</ele>
        <time>2026-05-25T07:56:46Z</time>
      </trkpt>
      <trkpt lat="45.37882" lon="5.62029">
        <ele>565</ele>
        <time>2026-05-25T07:56:50Z</time>
      </trkpt>
      <trkpt lat="45.37864" lon="5.62094">
        <ele>563</ele>
        <time>2026-05-25T07:57:02Z</time>
      </trkpt>
      <trkpt lat="45.37861" lon="5.62124">
        <ele>561</ele>
        <time>2026-05-25T07:57:07Z</time>
      </trkpt>
      <trkpt lat="45.3785" lon="5.62168">
        <ele>562</ele>
        <time>2026-05-25T07:57:14Z</time>
      </trkpt>
      <trkpt lat="45.37846" lon="5.62217">
        <ele>562</ele>
        <time>2026-05-25T07:57:23Z</time>
      </trkpt>
      <trkpt lat="45.37852" lon="5.6229">
        <ele>555</ele>
        <time>2026-05-25T07:57:35Z</time>
      </trkpt>
      <trkpt lat="45.37857" lon="5.62302">
        <ele>552</ele>
        <time>2026-05-25T07:57:37Z</time>
      </trkpt>
      <trkpt lat="45.37868" lon="5.62303">
        <ele>548</ele>
        <time>2026-05-25T07:57:39Z</time>
      </trkpt>
      <trkpt lat="45.37873" lon="5.62319">
        <ele>545</ele>
        <time>2026-05-25T07:57:42Z</time>
      </trkpt>
      <trkpt lat="45.37886" lon="5.62366">
        <ele>540</ele>
        <time>2026-05-25T07:57:51Z</time>
      </trkpt>
      <trkpt lat="45.37889" lon="5.62397">
        <ele>539</ele>
        <time>2026-05-25T07:57:56Z</time>
      </trkpt>
      <trkpt lat="45.3789" lon="5.62416">
        <ele>538</ele>
        <time>2026-05-25T07:57:59Z</time>
      </trkpt>
      <trkpt lat="45.37903" lon="5.62447">
        <ele>533</ele>
        <time>2026-05-25T07:58:05Z</time>
      </trkpt>
      <trkpt lat="45.37914" lon="5.62472">
        <ele>527</ele>
        <time>2026-05-25T07:58:10Z</time>
      </trkpt>
      <trkpt lat="45.37925" lon="5.62532">
        <ele>522</ele>
        <time>2026-05-25T07:58:20Z</time>
      </trkpt>
      <trkpt lat="45.37926" lon="5.62595">
        <ele>519</ele>
        <time>2026-05-25T07:58:30Z</time>
      </trkpt>
      <trkpt lat="45.37905" lon="5.62668">
        <ele>517</ele>
        <time>2026-05-25T07:58:43Z</time>
      </trkpt>
      <trkpt lat="45.37867" lon="5.62727">
        <ele>510</ele>
        <time>2026-05-25T07:58:56Z</time>
      </trkpt>
      <trkpt lat="45.37829" lon="5.62764">
        <ele>500</ele>
        <time>2026-05-25T07:59:07Z</time>
      </trkpt>
      <trkpt lat="45.37809" lon="5.62776">
        <ele>493</ele>
        <time>2026-05-25T07:59:12Z</time>
      </trkpt>
      <trkpt lat="45.37788" lon="5.62779">
        <ele>490</ele>
        <time>2026-05-25T07:59:17Z</time>
      </trkpt>
      <trkpt lat="45.37765" lon="5.62787">
        <ele>485</ele>
        <time>2026-05-25T07:59:23Z</time>
      </trkpt>
      <trkpt lat="45.37752" lon="5.62799">
        <ele>479</ele>
        <time>2026-05-25T07:59:26Z</time>
      </trkpt>
      <trkpt lat="45.37738" lon="5.62836">
        <ele>464</ele>
        <time>2026-05-25T07:59:33Z</time>
      </trkpt>
      <trkpt lat="45.37727" lon="5.62861">
        <ele>457</ele>
        <time>2026-05-25T07:59:38Z</time>
      </trkpt>
      <trkpt lat="45.37674" lon="5.6282">
        <ele>463</ele>
        <time>2026-05-25T07:59:52Z</time>
      </trkpt>
      <trkpt lat="45.37644" lon="5.62788">
        <ele>468</ele>
        <time>2026-05-25T08:00:01Z</time>
      </trkpt>
      <trkpt lat="45.37629" lon="5.62764">
        <ele>470</ele>
        <time>2026-05-25T08:00:06Z</time>
      </trkpt>
      <trkpt lat="45.37616" lon="5.62746">
        <ele>471</ele>
        <time>2026-05-25T08:00:10Z</time>
      </trkpt>
      <trkpt lat="45.37575" lon="5.62703">
        <ele>470</ele>
        <time>2026-05-25T08:00:22Z</time>
      </trkpt>
      <trkpt lat="45.37554" lon="5.62669">
        <ele>473</ele>
        <time>2026-05-25T08:00:30Z</time>
      </trkpt>
      <trkpt lat="45.37508" lon="5.62582">
        <ele>479</ele>
        <time>2026-05-25T08:00:47Z</time>
      </trkpt>
      <trkpt lat="45.37496" lon="5.62559">
        <ele>480</ele>
        <time>2026-05-25T08:00:52Z</time>
      </trkpt>
      <trkpt lat="45.37489" lon="5.62546">
        <ele>481</ele>
        <time>2026-05-25T08:00:55Z</time>
      </trkpt>
      <trkpt lat="45.37469" lon="5.62514">
        <ele>483</ele>
        <time>2026-05-25T08:01:02Z</time>
      </trkpt>
      <trkpt lat="45.37457" lon="5.62491">
        <ele>484</ele>
        <time>2026-05-25T08:01:07Z</time>
      </trkpt>
      <trkpt lat="45.37452" lon="5.62473">
        <ele>486</ele>
        <time>2026-05-25T08:01:10Z</time>
      </trkpt>
      <trkpt lat="45.37447" lon="5.62459">
        <ele>488</ele>
        <time>2026-05-25T08:01:12Z</time>
      </trkpt>
      <trkpt lat="45.37441" lon="5.6243">
        <ele>490</ele>
        <time>2026-05-25T08:01:17Z</time>
      </trkpt>
      <trkpt lat="45.3744" lon="5.62393">
        <ele>495</ele>
        <time>2026-05-25T08:01:23Z</time>
      </trkpt>
      <trkpt lat="45.37429" lon="5.62329">
        <ele>499</ele>
        <time>2026-05-25T08:01:34Z</time>
      </trkpt>
      <trkpt lat="45.37426" lon="5.62297">
        <ele>502</ele>
        <time>2026-05-25T08:01:39Z</time>
      </trkpt>
      <trkpt lat="45.37426" lon="5.62257">
        <ele>508</ele>
        <time>2026-05-25T08:01:46Z</time>
      </trkpt>
      <trkpt lat="45.37427" lon="5.62242">
        <ele>510</ele>
        <time>2026-05-25T08:01:48Z</time>
      </trkpt>
      <trkpt lat="45.37429" lon="5.62224">
        <ele>512</ele>
        <time>2026-05-25T08:01:51Z</time>
      </trkpt>
      <trkpt lat="45.37432" lon="5.62205">
        <ele>515</ele>
        <time>2026-05-25T08:01:55Z</time>
      </trkpt>
      <trkpt lat="45.37433" lon="5.62178">
        <ele>517</ele>
        <time>2026-05-25T08:01:59Z</time>
      </trkpt>
      <trkpt lat="45.37435" lon="5.62164">
        <ele>519</ele>
        <time>2026-05-25T08:02:01Z</time>
      </trkpt>
      <trkpt lat="45.37441" lon="5.6213">
        <ele>522</ele>
        <time>2026-05-25T08:02:07Z</time>
      </trkpt>
      <trkpt lat="45.37448" lon="5.62099">
        <ele>526</ele>
        <time>2026-05-25T08:02:13Z</time>
      </trkpt>
      <trkpt lat="45.3745" lon="5.62086">
        <ele>527</ele>
        <time>2026-05-25T08:02:15Z</time>
      </trkpt>
      <trkpt lat="45.37449" lon="5.62072">
        <ele>526</ele>
        <time>2026-05-25T08:02:17Z</time>
      </trkpt>
      <trkpt lat="45.37446" lon="5.62063">
        <ele>525</ele>
        <time>2026-05-25T08:02:19Z</time>
      </trkpt>
      <trkpt lat="45.37446" lon="5.62062">
        <ele>525</ele>
        <time>2026-05-25T08:02:19Z</time>
      </trkpt>
      <trkpt lat="45.37433" lon="5.62051">
        <ele>520</ele>
        <time>2026-05-25T08:02:22Z</time>
      </trkpt>
      <trkpt lat="45.37371" lon="5.62042">
        <ele>500</ele>
        <time>2026-05-25T08:02:37Z</time>
      </trkpt>
      <trkpt lat="45.37362" lon="5.62037">
        <ele>497</ele>
        <time>2026-05-25T08:02:39Z</time>
      </trkpt>
      <trkpt lat="45.37356" lon="5.62026">
        <ele>495</ele>
        <time>2026-05-25T08:02:41Z</time>
      </trkpt>
      <trkpt lat="45.37353" lon="5.6201">
        <ele>494</ele>
        <time>2026-05-25T08:02:44Z</time>
      </trkpt>
      <trkpt lat="45.37351" lon="5.62004">
        <ele>493</ele>
        <time>2026-05-25T08:02:45Z</time>
      </trkpt>
      <trkpt lat="45.37346" lon="5.62001">
        <ele>492</ele>
        <time>2026-05-25T08:02:46Z</time>
      </trkpt>
      <trkpt lat="45.37344" lon="5.62002">
        <ele>491</ele>
        <time>2026-05-25T08:02:47Z</time>
      </trkpt>
      <trkpt lat="45.37341" lon="5.62003">
        <ele>490</ele>
        <time>2026-05-25T08:02:48Z</time>
      </trkpt>
      <trkpt lat="45.37317" lon="5.62051">
        <ele>485</ele>
        <time>2026-05-25T08:02:57Z</time>
      </trkpt>
      <trkpt lat="45.37311" lon="5.62067">
        <ele>484</ele>
        <time>2026-05-25T08:03:00Z</time>
      </trkpt>
      <trkpt lat="45.37288" lon="5.62114">
        <ele>480</ele>
        <time>2026-05-25T08:03:10Z</time>
      </trkpt>
      <trkpt lat="45.37283" lon="5.62122">
        <ele>480</ele>
        <time>2026-05-25T08:03:12Z</time>
      </trkpt>
      <trkpt lat="45.3727" lon="5.6213">
        <ele>477</ele>
        <time>2026-05-25T08:03:15Z</time>
      </trkpt>
      <trkpt lat="45.37255" lon="5.62142">
        <ele>475</ele>
        <time>2026-05-25T08:03:19Z</time>
      </trkpt>
      <trkpt lat="45.37248" lon="5.62151">
        <ele>474</ele>
        <time>2026-05-25T08:03:21Z</time>
      </trkpt>
      <trkpt lat="45.37213" lon="5.62213">
        <ele>467</ele>
        <time>2026-05-25T08:03:34Z</time>
      </trkpt>
      <trkpt lat="45.37204" lon="5.62232">
        <ele>466</ele>
        <time>2026-05-25T08:03:38Z</time>
      </trkpt>
      <trkpt lat="45.37201" lon="5.62237">
        <ele>465</ele>
        <time>2026-05-25T08:03:39Z</time>
      </trkpt>
      <trkpt lat="45.37186" lon="5.62269">
        <ele>465</ele>
        <time>2026-05-25T08:03:45Z</time>
      </trkpt>
      <trkpt lat="45.37174" lon="5.62287">
        <ele>464</ele>
        <time>2026-05-25T08:03:49Z</time>
      </trkpt>
      <trkpt lat="45.3716" lon="5.62294">
        <ele>462</ele>
        <time>2026-05-25T08:03:53Z</time>
      </trkpt>
      <trkpt lat="45.3714" lon="5.62309">
        <ele>458</ele>
        <time>2026-05-25T08:03:58Z</time>
      </trkpt>
      <trkpt lat="45.37091" lon="5.62358">
        <ele>452</ele>
        <time>2026-05-25T08:04:12Z</time>
      </trkpt>
      <trkpt lat="45.37081" lon="5.62366">
        <ele>450</ele>
        <time>2026-05-25T08:04:15Z</time>
      </trkpt>
      <trkpt lat="45.3707" lon="5.6237">
        <ele>447</ele>
        <time>2026-05-25T08:04:17Z</time>
      </trkpt>
      <trkpt lat="45.37055" lon="5.62384">
        <ele>443</ele>
        <time>2026-05-25T08:04:22Z</time>
      </trkpt>
      <trkpt lat="45.37042" lon="5.62403">
        <ele>440</ele>
        <time>2026-05-25T08:04:26Z</time>
      </trkpt>
      <trkpt lat="45.37021" lon="5.62454">
        <ele>439</ele>
        <time>2026-05-25T08:04:36Z</time>
      </trkpt>
      <trkpt lat="45.36983" lon="5.62572">
        <ele>438</ele>
        <time>2026-05-25T08:04:57Z</time>
      </trkpt>
      <trkpt lat="45.36956" lon="5.62613">
        <ele>432</ele>
        <time>2026-05-25T08:05:06Z</time>
      </trkpt>
      <trkpt lat="45.36937" lon="5.62637">
        <ele>429</ele>
        <time>2026-05-25T08:05:12Z</time>
      </trkpt>
      <trkpt lat="45.36922" lon="5.62644">
        <ele>427</ele>
        <time>2026-05-25T08:05:16Z</time>
      </trkpt>
      <trkpt lat="45.36911" lon="5.62643">
        <ele>425</ele>
        <time>2026-05-25T08:05:18Z</time>
      </trkpt>
      <trkpt lat="45.36899" lon="5.62648">
        <ele>422</ele>
        <time>2026-05-25T08:05:21Z</time>
      </trkpt>
      <trkpt lat="45.36892" lon="5.62656">
        <ele>421</ele>
        <time>2026-05-25T08:05:23Z</time>
      </trkpt>
      <trkpt lat="45.36886" lon="5.62673">
        <ele>420</ele>
        <time>2026-05-25T08:05:26Z</time>
      </trkpt>
      <trkpt lat="45.36883" lon="5.62698">
        <ele>419</ele>
        <time>2026-05-25T08:05:31Z</time>
      </trkpt>
      <trkpt lat="45.36883" lon="5.62726">
        <ele>418</ele>
        <time>2026-05-25T08:05:35Z</time>
      </trkpt>
      <trkpt lat="45.3689" lon="5.62785">
        <ele>416</ele>
        <time>2026-05-25T08:05:45Z</time>
      </trkpt>
      <trkpt lat="45.3689" lon="5.62805">
        <ele>414</ele>
        <time>2026-05-25T08:05:48Z</time>
      </trkpt>
      <trkpt lat="45.36884" lon="5.62842">
        <ele>409</ele>
        <time>2026-05-25T08:05:55Z</time>
      </trkpt>
      <trkpt lat="45.3688" lon="5.62849">
        <ele>408</ele>
        <time>2026-05-25T08:05:56Z</time>
      </trkpt>
      <trkpt lat="45.36877" lon="5.62852">
        <ele>408</ele>
        <time>2026-05-25T08:05:57Z</time>
      </trkpt>
      <trkpt lat="45.36872" lon="5.62851">
        <ele>407</ele>
        <time>2026-05-25T08:05:58Z</time>
      </trkpt>
      <trkpt lat="45.36862" lon="5.62843">
        <ele>407</ele>
        <time>2026-05-25T08:06:01Z</time>
      </trkpt>
      <trkpt lat="45.36852" lon="5.62831">
        <ele>407</ele>
        <time>2026-05-25T08:06:04Z</time>
      </trkpt>
      <trkpt lat="45.36841" lon="5.62823">
        <ele>406</ele>
        <time>2026-05-25T08:06:07Z</time>
      </trkpt>
      <trkpt lat="45.36826" lon="5.62826">
        <ele>405</ele>
        <time>2026-05-25T08:06:10Z</time>
      </trkpt>
      <trkpt lat="45.36815" lon="5.62835">
        <ele>403</ele>
        <time>2026-05-25T08:06:13Z</time>
      </trkpt>
      <trkpt lat="45.36808" lon="5.62848">
        <ele>402</ele>
        <time>2026-05-25T08:06:16Z</time>
      </trkpt>
      <trkpt lat="45.36788" lon="5.62863">
        <ele>400</ele>
        <time>2026-05-25T08:06:21Z</time>
      </trkpt>
      <trkpt lat="45.36773" lon="5.62871">
        <ele>399</ele>
        <time>2026-05-25T08:06:25Z</time>
      </trkpt>
      <trkpt lat="45.36764" lon="5.62874">
        <ele>398</ele>
        <time>2026-05-25T08:06:27Z</time>
      </trkpt>
      <trkpt lat="45.36758" lon="5.62875">
        <ele>398</ele>
        <time>2026-05-25T08:06:28Z</time>
      </trkpt>
      <trkpt lat="45.36774" lon="5.62916">
        <ele>398</ele>
        <time>2026-05-25T08:06:36Z</time>
      </trkpt>
      <trkpt lat="45.36803" lon="5.62976">
        <ele>401</ele>
        <time>2026-05-25T08:06:48Z</time>
      </trkpt>
      <trkpt lat="45.36812" lon="5.62991">
        <ele>402</ele>
        <time>2026-05-25T08:06:51Z</time>
      </trkpt>
      <trkpt lat="45.36823" lon="5.63005">
        <ele>403</ele>
        <time>2026-05-25T08:06:55Z</time>
      </trkpt>
      <trkpt lat="45.36835" lon="5.63017">
        <ele>405</ele>
        <time>2026-05-25T08:06:58Z</time>
      </trkpt>
      <trkpt lat="45.36844" lon="5.63023">
        <ele>407</ele>
        <time>2026-05-25T08:07:01Z</time>
      </trkpt>
      <trkpt lat="45.36853" lon="5.63026">
        <ele>408</ele>
        <time>2026-05-25T08:07:03Z</time>
      </trkpt>
      <trkpt lat="45.36895" lon="5.63028">
        <ele>411</ele>
        <time>2026-05-25T08:07:12Z</time>
      </trkpt>
      <trkpt lat="45.36902" lon="5.6303">
        <ele>412</ele>
        <time>2026-05-25T08:07:14Z</time>
      </trkpt>
      <trkpt lat="45.3696" lon="5.63055">
        <ele>418</ele>
        <time>2026-05-25T08:07:28Z</time>
      </trkpt>
      <trkpt lat="45.36985" lon="5.63063">
        <ele>421</ele>
        <time>2026-05-25T08:07:34Z</time>
      </trkpt>
      <trkpt lat="45.37015" lon="5.63077">
        <ele>422</ele>
        <time>2026-05-25T08:07:42Z</time>
      </trkpt>
      <trkpt lat="45.37032" lon="5.63093">
        <ele>422</ele>
        <time>2026-05-25T08:07:46Z</time>
      </trkpt>
      <trkpt lat="45.37062" lon="5.63117">
        <ele>422</ele>
        <time>2026-05-25T08:07:54Z</time>
      </trkpt>
      <trkpt lat="45.37078" lon="5.63125">
        <ele>422</ele>
        <time>2026-05-25T08:07:58Z</time>
      </trkpt>
      <trkpt lat="45.37097" lon="5.63137">
        <ele>423</ele>
        <time>2026-05-25T08:08:03Z</time>
      </trkpt>
      <trkpt lat="45.37113" lon="5.63153">
        <ele>423</ele>
        <time>2026-05-25T08:08:08Z</time>
      </trkpt>
      <trkpt lat="45.37132" lon="5.63181">
        <ele>424</ele>
        <time>2026-05-25T08:08:14Z</time>
      </trkpt>
      <trkpt lat="45.37166" lon="5.63245">
        <ele>426</ele>
        <time>2026-05-25T08:08:27Z</time>
      </trkpt>
      <trkpt lat="45.37204" lon="5.63329">
        <ele>430</ele>
        <time>2026-05-25T08:08:44Z</time>
      </trkpt>
      <trkpt lat="45.37249" lon="5.634">
        <ele>434</ele>
        <time>2026-05-25T08:08:59Z</time>
      </trkpt>
      <trkpt lat="45.37293" lon="5.63451">
        <ele>437</ele>
        <time>2026-05-25T08:09:13Z</time>
      </trkpt>
      <trkpt lat="45.3732" lon="5.63506">
        <ele>439</ele>
        <time>2026-05-25T08:09:24Z</time>
      </trkpt>
      <trkpt lat="45.37329" lon="5.63531">
        <ele>440</ele>
        <time>2026-05-25T08:09:28Z</time>
      </trkpt>
      <trkpt lat="45.37365" lon="5.63631">
        <ele>441</ele>
        <time>2026-05-25T08:09:47Z</time>
      </trkpt>
      <trkpt lat="45.37381" lon="5.63675">
        <ele>442</ele>
        <time>2026-05-25T08:09:55Z</time>
      </trkpt>
      <trkpt lat="45.37398" lon="5.63711">
        <ele>443</ele>
        <time>2026-05-25T08:10:02Z</time>
      </trkpt>
      <trkpt lat="45.37416" lon="5.63741">
        <ele>443</ele>
        <time>2026-05-25T08:10:08Z</time>
      </trkpt>
      <trkpt lat="45.37445" lon="5.6378">
        <ele>444</ele>
        <time>2026-05-25T08:10:18Z</time>
      </trkpt>
      <trkpt lat="45.37458" lon="5.63789">
        <ele>444</ele>
        <time>2026-05-25T08:10:21Z</time>
      </trkpt>
      <trkpt lat="45.37472" lon="5.63792">
        <ele>444</ele>
        <time>2026-05-25T08:10:24Z</time>
      </trkpt>
      <trkpt lat="45.37579" lon="5.63807">
        <ele>446</ele>
        <time>2026-05-25T08:10:50Z</time>
      </trkpt>
      <trkpt lat="45.37589" lon="5.63813">
        <ele>446</ele>
        <time>2026-05-25T08:10:52Z</time>
      </trkpt>
      <trkpt lat="45.37598" lon="5.63821">
        <ele>447</ele>
        <time>2026-05-25T08:10:55Z</time>
      </trkpt>
      <trkpt lat="45.37605" lon="5.63829">
        <ele>447</ele>
        <time>2026-05-25T08:10:57Z</time>
      </trkpt>
      <trkpt lat="45.37618" lon="5.63845">
        <ele>447</ele>
        <time>2026-05-25T08:11:01Z</time>
      </trkpt>
      <trkpt lat="45.37715" lon="5.63922">
        <ele>449</ele>
        <time>2026-05-25T08:11:27Z</time>
      </trkpt>
      <trkpt lat="45.37778" lon="5.63974">
        <ele>447</ele>
        <time>2026-05-25T08:11:44Z</time>
      </trkpt>
      <trkpt lat="45.37819" lon="5.64018">
        <ele>446</ele>
        <time>2026-05-25T08:11:56Z</time>
      </trkpt>
      <trkpt lat="45.37826" lon="5.64026">
        <ele>446</ele>
        <time>2026-05-25T08:11:58Z</time>
      </trkpt>
      <trkpt lat="45.37834" lon="5.64035">
        <ele>446</ele>
        <time>2026-05-25T08:12:00Z</time>
      </trkpt>
      <trkpt lat="45.3787" lon="5.64072">
        <ele>446</ele>
        <time>2026-05-25T08:12:10Z</time>
      </trkpt>
      <trkpt lat="45.379" lon="5.64103">
        <ele>447</ele>
        <time>2026-05-25T08:12:19Z</time>
      </trkpt>
      <trkpt lat="45.37905" lon="5.64105">
        <ele>447</ele>
        <time>2026-05-25T08:12:20Z</time>
      </trkpt>
      <trkpt lat="45.37908" lon="5.64111">
        <ele>447</ele>
        <time>2026-05-25T08:12:22Z</time>
      </trkpt>
      <trkpt lat="45.37911" lon="5.64115">
        <ele>447</ele>
        <time>2026-05-25T08:12:23Z</time>
      </trkpt>
      <trkpt lat="45.37927" lon="5.64126">
        <ele>448</ele>
        <time>2026-05-25T08:12:27Z</time>
      </trkpt>
      <trkpt lat="45.37973" lon="5.6416">
        <ele>449</ele>
        <time>2026-05-25T08:12:39Z</time>
      </trkpt>
      <trkpt lat="45.37984" lon="5.6417">
        <ele>449</ele>
        <time>2026-05-25T08:12:42Z</time>
      </trkpt>
      <trkpt lat="45.37994" lon="5.64175">
        <ele>449</ele>
        <time>2026-05-25T08:12:44Z</time>
      </trkpt>
      <trkpt lat="45.38003" lon="5.64183">
        <ele>449</ele>
        <time>2026-05-25T08:12:47Z</time>
      </trkpt>
      <trkpt lat="45.38003" lon="5.64186">
        <ele>449</ele>
        <time>2026-05-25T08:12:47Z</time>
      </trkpt>
      <trkpt lat="45.38004" lon="5.6419">
        <ele>449</ele>
        <time>2026-05-25T08:12:48Z</time>
      </trkpt>
      <trkpt lat="45.38006" lon="5.64193">
        <ele>449</ele>
        <time>2026-05-25T08:12:49Z</time>
      </trkpt>
      <trkpt lat="45.38009" lon="5.64195">
        <ele>449</ele>
        <time>2026-05-25T08:12:49Z</time>
      </trkpt>
      <trkpt lat="45.38012" lon="5.64195">
        <ele>449</ele>
        <time>2026-05-25T08:12:50Z</time>
      </trkpt>
      <trkpt lat="45.38018" lon="5.64199">
        <ele>449</ele>
        <time>2026-05-25T08:12:52Z</time>
      </trkpt>
      <trkpt lat="45.38023" lon="5.64203">
        <ele>449</ele>
        <time>2026-05-25T08:12:53Z</time>
      </trkpt>
      <trkpt lat="45.3805" lon="5.64213">
        <ele>449</ele>
        <time>2026-05-25T08:13:00Z</time>
      </trkpt>
      <trkpt lat="45.38088" lon="5.64241">
        <ele>449</ele>
        <time>2026-05-25T08:13:10Z</time>
      </trkpt>
      <trkpt lat="45.38101" lon="5.64254">
        <ele>449</ele>
        <time>2026-05-25T08:13:13Z</time>
      </trkpt>
      <trkpt lat="45.38115" lon="5.64272">
        <ele>449</ele>
        <time>2026-05-25T08:13:18Z</time>
      </trkpt>
      <trkpt lat="45.38121" lon="5.6428">
        <ele>448</ele>
        <time>2026-05-25T08:13:20Z</time>
      </trkpt>
      <trkpt lat="45.38131" lon="5.64294">
        <ele>448</ele>
        <time>2026-05-25T08:13:23Z</time>
      </trkpt>
      <trkpt lat="45.38202" lon="5.64413">
        <ele>449</ele>
        <time>2026-05-25T08:13:48Z</time>
      </trkpt>
      <trkpt lat="45.38227" lon="5.64449">
        <ele>449</ele>
        <time>2026-05-25T08:13:57Z</time>
      </trkpt>
      <trkpt lat="45.3824" lon="5.64467">
        <ele>449</ele>
        <time>2026-05-25T08:14:01Z</time>
      </trkpt>
      <trkpt lat="45.38249" lon="5.64477">
        <ele>449</ele>
        <time>2026-05-25T08:14:04Z</time>
      </trkpt>
      <trkpt lat="45.38275" lon="5.64497">
        <ele>448</ele>
        <time>2026-05-25T08:14:11Z</time>
      </trkpt>
      <trkpt lat="45.38293" lon="5.64509">
        <ele>448</ele>
        <time>2026-05-25T08:14:15Z</time>
      </trkpt>
      <trkpt lat="45.38289" lon="5.64523">
        <ele>448</ele>
        <time>2026-05-25T08:14:18Z</time>
      </trkpt>
      <trkpt lat="45.38288" lon="5.64534">
        <ele>448</ele>
        <time>2026-05-25T08:14:19Z</time>
      </trkpt>
      <trkpt lat="45.38288" lon="5.64543">
        <ele>449</ele>
        <time>2026-05-25T08:14:21Z</time>
      </trkpt>
      <trkpt lat="45.38288" lon="5.64534">
        <ele>448</ele>
        <time>2026-05-25T08:14:22Z</time>
      </trkpt>
      <trkpt lat="45.38289" lon="5.64523">
        <ele>448</ele>
        <time>2026-05-25T08:14:24Z</time>
      </trkpt>
      <trkpt lat="45.38293" lon="5.64509">
        <ele>448</ele>
        <time>2026-05-25T08:14:27Z</time>
      </trkpt>
      <trkpt lat="45.38295" lon="5.6451">
        <ele>448</ele>
        <time>2026-05-25T08:14:27Z</time>
      </trkpt>
      <trkpt lat="45.38302" lon="5.64515">
        <ele>448</ele>
        <time>2026-05-25T08:14:29Z</time>
      </trkpt>
      <trkpt lat="45.38315" lon="5.6452">
        <ele>448</ele>
        <time>2026-05-25T08:14:32Z</time>
      </trkpt>
      <trkpt lat="45.38334" lon="5.64524">
        <ele>447</ele>
        <time>2026-05-25T08:14:37Z</time>
      </trkpt>
      <trkpt lat="45.38391" lon="5.64531">
        <ele>446</ele>
        <time>2026-05-25T08:14:50Z</time>
      </trkpt>
      <trkpt lat="45.38472" lon="5.64542">
        <ele>445</ele>
        <time>2026-05-25T08:15:09Z</time>
      </trkpt>
      <trkpt lat="45.38506" lon="5.64548">
        <ele>445</ele>
        <time>2026-05-25T08:15:17Z</time>
      </trkpt>
      <trkpt lat="45.38518" lon="5.64556">
        <ele>444</ele>
        <time>2026-05-25T08:15:20Z</time>
      </trkpt>
      <trkpt lat="45.38529" lon="5.64565">
        <ele>444</ele>
        <time>2026-05-25T08:15:23Z</time>
      </trkpt>
      <trkpt lat="45.3854" lon="5.64583">
        <ele>443</ele>
        <time>2026-05-25T08:15:27Z</time>
      </trkpt>
      <trkpt lat="45.38547" lon="5.64596">
        <ele>443</ele>
        <time>2026-05-25T08:15:30Z</time>
      </trkpt>
      <trkpt lat="45.38555" lon="5.64617">
        <ele>443</ele>
        <time>2026-05-25T08:15:34Z</time>
      </trkpt>
      <trkpt lat="45.38558" lon="5.64622">
        <ele>442</ele>
        <time>2026-05-25T08:15:35Z</time>
      </trkpt>
      <trkpt lat="45.38572" lon="5.64655">
        <ele>442</ele>
        <time>2026-05-25T08:15:41Z</time>
      </trkpt>
      <trkpt lat="45.38565" lon="5.64662">
        <ele>442</ele>
        <time>2026-05-25T08:15:43Z</time>
      </trkpt>
      <trkpt lat="45.3858" lon="5.64701">
        <ele>442</ele>
        <time>2026-05-25T08:15:50Z</time>
      </trkpt>
      <trkpt lat="45.38591" lon="5.64723">
        <ele>443</ele>
        <time>2026-05-25T08:15:55Z</time>
      </trkpt>
      <trkpt lat="45.38595" lon="5.64729">
        <ele>443</ele>
        <time>2026-05-25T08:15:56Z</time>
      </trkpt>
      <trkpt lat="45.38602" lon="5.64739">
        <ele>443</ele>
        <time>2026-05-25T08:15:58Z</time>
      </trkpt>
      <trkpt lat="45.38616" lon="5.6475">
        <ele>442</ele>
        <time>2026-05-25T08:16:02Z</time>
      </trkpt>
      <trkpt lat="45.38627" lon="5.64757">
        <ele>441</ele>
        <time>2026-05-25T08:16:05Z</time>
      </trkpt>
      <trkpt lat="45.3865" lon="5.64763">
        <ele>440</ele>
        <time>2026-05-25T08:16:10Z</time>
      </trkpt>
      <trkpt lat="45.38943" lon="5.64799">
        <ele>450</ele>
        <time>2026-05-25T08:17:19Z</time>
      </trkpt>
      <trkpt lat="45.38963" lon="5.64802">
        <ele>451</ele>
        <time>2026-05-25T08:17:24Z</time>
      </trkpt>
      <trkpt lat="45.38977" lon="5.648">
        <ele>452</ele>
        <time>2026-05-25T08:17:27Z</time>
      </trkpt>
      <trkpt lat="45.38991" lon="5.64795">
        <ele>452</ele>
        <time>2026-05-25T08:17:30Z</time>
      </trkpt>
      <trkpt lat="45.39098" lon="5.64751">
        <ele>456</ele>
        <time>2026-05-25T08:17:56Z</time>
      </trkpt>
      <trkpt lat="45.3912" lon="5.64737">
        <ele>457</ele>
        <time>2026-05-25T08:18:02Z</time>
      </trkpt>
      <trkpt lat="45.39123" lon="5.64734">
        <ele>457</ele>
        <time>2026-05-25T08:18:03Z</time>
      </trkpt>
      <trkpt lat="45.39126" lon="5.64736">
        <ele>457</ele>
        <time>2026-05-25T08:18:04Z</time>
      </trkpt>
      <trkpt lat="45.3913" lon="5.64737">
        <ele>457</ele>
        <time>2026-05-25T08:18:05Z</time>
      </trkpt>
      <trkpt lat="45.39133" lon="5.64735">
        <ele>457</ele>
        <time>2026-05-25T08:18:05Z</time>
      </trkpt>
      <trkpt lat="45.39136" lon="5.64732">
        <ele>457</ele>
        <time>2026-05-25T08:18:06Z</time>
      </trkpt>
      <trkpt lat="45.39137" lon="5.64727">
        <ele>457</ele>
        <time>2026-05-25T08:18:07Z</time>
      </trkpt>
      <trkpt lat="45.39147" lon="5.6473">
        <ele>458</ele>
        <time>2026-05-25T08:18:10Z</time>
      </trkpt>
      <trkpt lat="45.39162" lon="5.6473">
        <ele>458</ele>
        <time>2026-05-25T08:18:13Z</time>
      </trkpt>
      <trkpt lat="45.39167" lon="5.64732">
        <ele>459</ele>
        <time>2026-05-25T08:18:14Z</time>
      </trkpt>
      <trkpt lat="45.39174" lon="5.64737">
        <ele>459</ele>
        <time>2026-05-25T08:18:16Z</time>
      </trkpt>
      <trkpt lat="45.39177" lon="5.64741">
        <ele>459</ele>
        <time>2026-05-25T08:18:17Z</time>
      </trkpt>
      <trkpt lat="45.39183" lon="5.64753">
        <ele>459</ele>
        <time>2026-05-25T08:18:19Z</time>
      </trkpt>
      <trkpt lat="45.39186" lon="5.64762">
        <ele>459</ele>
        <time>2026-05-25T08:18:21Z</time>
      </trkpt>
      <trkpt lat="45.39194" lon="5.64819">
        <ele>460</ele>
        <time>2026-05-25T08:18:31Z</time>
      </trkpt>
      <trkpt lat="45.39198" lon="5.64843">
        <ele>460</ele>
        <time>2026-05-25T08:18:35Z</time>
      </trkpt>
      <trkpt lat="45.39207" lon="5.6491">
        <ele>461</ele>
        <time>2026-05-25T08:18:46Z</time>
      </trkpt>
      <trkpt lat="45.39219" lon="5.64991">
        <ele>462</ele>
        <time>2026-05-25T08:18:59Z</time>
      </trkpt>
      <trkpt lat="45.39259" lon="5.64983">
        <ele>463</ele>
        <time>2026-05-25T08:19:09Z</time>
      </trkpt>
      <trkpt lat="45.3934" lon="5.64967">
        <ele>465</ele>
        <time>2026-05-25T08:19:28Z</time>
      </trkpt>
      <trkpt lat="45.39375" lon="5.64959">
        <ele>467</ele>
        <time>2026-05-25T08:19:36Z</time>
      </trkpt>
      <trkpt lat="45.39394" lon="5.64952">
        <ele>468</ele>
        <time>2026-05-25T08:19:41Z</time>
      </trkpt>
      <trkpt lat="45.39432" lon="5.6493">
        <ele>472</ele>
        <time>2026-05-25T08:19:50Z</time>
      </trkpt>
      <trkpt lat="45.39471" lon="5.64938">
        <ele>480</ele>
        <time>2026-05-25T08:20:00Z</time>
      </trkpt>
      <trkpt lat="45.39511" lon="5.64948">
        <ele>487</ele>
        <time>2026-05-25T08:20:09Z</time>
      </trkpt>
      <trkpt lat="45.3952" lon="5.64948">
        <ele>489</ele>
        <time>2026-05-25T08:20:11Z</time>
      </trkpt>
      <trkpt lat="45.39518" lon="5.64913">
        <ele>492</ele>
        <time>2026-05-25T08:20:17Z</time>
      </trkpt>
      <trkpt lat="45.3951" lon="5.64863">
        <ele>499</ele>
        <time>2026-05-25T08:20:25Z</time>
      </trkpt>
      <trkpt lat="45.39496" lon="5.64789">
        <ele>509</ele>
        <time>2026-05-25T08:20:38Z</time>
      </trkpt>
      <trkpt lat="45.395" lon="5.64779">
        <ele>512</ele>
        <time>2026-05-25T08:20:40Z</time>
      </trkpt>
      <trkpt lat="45.39505" lon="5.64783">
        <ele>512</ele>
        <time>2026-05-25T08:20:41Z</time>
      </trkpt>
      <trkpt lat="45.39511" lon="5.64791">
        <ele>512</ele>
        <time>2026-05-25T08:20:43Z</time>
      </trkpt>
      <trkpt lat="45.39516" lon="5.64801">
        <ele>511</ele>
        <time>2026-05-25T08:20:45Z</time>
      </trkpt>
      <trkpt lat="45.39542" lon="5.64862">
        <ele>505</ele>
        <time>2026-05-25T08:20:57Z</time>
      </trkpt>
      <trkpt lat="45.39551" lon="5.64866">
        <ele>507</ele>
        <time>2026-05-25T08:20:59Z</time>
      </trkpt>
      <trkpt lat="45.39565" lon="5.64869">
        <ele>509</ele>
        <time>2026-05-25T08:21:02Z</time>
      </trkpt>
      <trkpt lat="45.39583" lon="5.64869">
        <ele>512</ele>
        <time>2026-05-25T08:21:07Z</time>
      </trkpt>
      <trkpt lat="45.39595" lon="5.64867">
        <ele>514</ele>
        <time>2026-05-25T08:21:09Z</time>
      </trkpt>
      <trkpt lat="45.39602" lon="5.64865">
        <ele>515</ele>
        <time>2026-05-25T08:21:11Z</time>
      </trkpt>
      <trkpt lat="45.396" lon="5.6486">
        <ele>515</ele>
        <time>2026-05-25T08:21:12Z</time>
      </trkpt>
      <trkpt lat="45.39595" lon="5.64852">
        <ele>516</ele>
        <time>2026-05-25T08:21:14Z</time>
      </trkpt>
      <trkpt lat="45.39575" lon="5.64824">
        <ele>518</ele>
        <time>2026-05-25T08:21:20Z</time>
      </trkpt>
      <trkpt lat="45.3955" lon="5.64787">
        <ele>519</ele>
        <time>2026-05-25T08:21:29Z</time>
      </trkpt>
      <trkpt lat="45.39539" lon="5.64766">
        <ele>520</ele>
        <time>2026-05-25T08:21:33Z</time>
      </trkpt>
      <trkpt lat="45.39525" lon="5.64729">
        <ele>526</ele>
        <time>2026-05-25T08:21:40Z</time>
      </trkpt>
      <trkpt lat="45.39521" lon="5.64722">
        <ele>526</ele>
        <time>2026-05-25T08:21:41Z</time>
      </trkpt>
      <trkpt lat="45.39513" lon="5.64712">
        <ele>528</ele>
        <time>2026-05-25T08:21:44Z</time>
      </trkpt>
      <trkpt lat="45.39445" lon="5.64634">
        <ele>529</ele>
        <time>2026-05-25T08:22:04Z</time>
      </trkpt>
      <trkpt lat="45.39437" lon="5.64621">
        <ele>530</ele>
        <time>2026-05-25T08:22:07Z</time>
      </trkpt>
      <trkpt lat="45.39427" lon="5.64596">
        <ele>533</ele>
        <time>2026-05-25T08:22:12Z</time>
      </trkpt>
      <trkpt lat="45.39423" lon="5.64576">
        <ele>536</ele>
        <time>2026-05-25T08:22:15Z</time>
      </trkpt>
      <trkpt lat="45.39408" lon="5.64496">
        <ele>544</ele>
        <time>2026-05-25T08:22:29Z</time>
      </trkpt>
      <trkpt lat="45.39403" lon="5.6446">
        <ele>546</ele>
        <time>2026-05-25T08:22:35Z</time>
      </trkpt>
      <trkpt lat="45.39395" lon="5.64369">
        <ele>556</ele>
        <time>2026-05-25T08:22:50Z</time>
      </trkpt>
      <trkpt lat="45.39394" lon="5.6434">
        <ele>559</ele>
        <time>2026-05-25T08:22:55Z</time>
      </trkpt>
      <trkpt lat="45.39397" lon="5.64313">
        <ele>565</ele>
        <time>2026-05-25T08:22:59Z</time>
      </trkpt>
      <trkpt lat="45.39402" lon="5.64287">
        <ele>572</ele>
        <time>2026-05-25T08:23:03Z</time>
      </trkpt>
      <trkpt lat="45.39402" lon="5.6428">
        <ele>574</ele>
        <time>2026-05-25T08:23:05Z</time>
      </trkpt>
      <trkpt lat="45.39395" lon="5.64272">
        <ele>573</ele>
        <time>2026-05-25T08:23:07Z</time>
      </trkpt>
      <trkpt lat="45.39378" lon="5.64265">
        <ele>569</ele>
        <time>2026-05-25T08:23:11Z</time>
      </trkpt>
      <trkpt lat="45.3937" lon="5.64259">
        <ele>568</ele>
        <time>2026-05-25T08:23:13Z</time>
      </trkpt>
      <trkpt lat="45.39362" lon="5.64253">
        <ele>567</ele>
        <time>2026-05-25T08:23:15Z</time>
      </trkpt>
      <trkpt lat="45.39358" lon="5.64246">
        <ele>567</ele>
        <time>2026-05-25T08:23:17Z</time>
      </trkpt>
      <trkpt lat="45.39358" lon="5.6424">
        <ele>568</ele>
        <time>2026-05-25T08:23:18Z</time>
      </trkpt>
      <trkpt lat="45.3936" lon="5.64235">
        <ele>570</ele>
        <time>2026-05-25T08:23:18Z</time>
      </trkpt>
      <trkpt lat="45.39365" lon="5.64233">
        <ele>572</ele>
        <time>2026-05-25T08:23:20Z</time>
      </trkpt>
      <trkpt lat="45.39372" lon="5.64234">
        <ele>574</ele>
        <time>2026-05-25T08:23:21Z</time>
      </trkpt>
      <trkpt lat="45.39379" lon="5.64239">
        <ele>575</ele>
        <time>2026-05-25T08:23:23Z</time>
      </trkpt>
      <trkpt lat="45.39388" lon="5.64241">
        <ele>578</ele>
        <time>2026-05-25T08:23:25Z</time>
      </trkpt>
      <trkpt lat="45.39408" lon="5.6424">
        <ele>584</ele>
        <time>2026-05-25T08:23:30Z</time>
      </trkpt>
      <trkpt lat="45.39435" lon="5.64236">
        <ele>592</ele>
        <time>2026-05-25T08:23:36Z</time>
      </trkpt>
      <trkpt lat="45.39462" lon="5.64244">
        <ele>596</ele>
        <time>2026-05-25T08:23:43Z</time>
      </trkpt>
      <trkpt lat="45.39469" lon="5.64244">
        <ele>598</ele>
        <time>2026-05-25T08:23:44Z</time>
      </trkpt>
      <trkpt lat="45.39473" lon="5.6424">
        <ele>600</ele>
        <time>2026-05-25T08:23:46Z</time>
      </trkpt>
      <trkpt lat="45.39474" lon="5.64232">
        <ele>601</ele>
        <time>2026-05-25T08:23:47Z</time>
      </trkpt>
      <trkpt lat="45.39472" lon="5.64223">
        <ele>602</ele>
        <time>2026-05-25T08:23:48Z</time>
      </trkpt>
      <trkpt lat="45.39464" lon="5.6421">
        <ele>603</ele>
        <time>2026-05-25T08:23:51Z</time>
      </trkpt>
      <trkpt lat="45.39449" lon="5.64198">
        <ele>603</ele>
        <time>2026-05-25T08:23:55Z</time>
      </trkpt>
      <trkpt lat="45.39427" lon="5.64189">
        <ele>601</ele>
        <time>2026-05-25T08:24:01Z</time>
      </trkpt>
      <trkpt lat="45.39415" lon="5.6418">
        <ele>600</ele>
        <time>2026-05-25T08:24:04Z</time>
      </trkpt>
      <trkpt lat="45.39401" lon="5.64161">
        <ele>600</ele>
        <time>2026-05-25T08:24:08Z</time>
      </trkpt>
      <trkpt lat="45.39395" lon="5.64143">
        <ele>601</ele>
        <time>2026-05-25T08:24:12Z</time>
      </trkpt>
      <trkpt lat="45.39393" lon="5.64093">
        <ele>610</ele>
        <time>2026-05-25T08:24:20Z</time>
      </trkpt>
      <trkpt lat="45.39393" lon="5.64072">
        <ele>613</ele>
        <time>2026-05-25T08:24:23Z</time>
      </trkpt>
      <trkpt lat="45.394" lon="5.64014">
        <ele>626</ele>
        <time>2026-05-25T08:24:33Z</time>
      </trkpt>
      <trkpt lat="45.39399" lon="5.63991">
        <ele>630</ele>
        <time>2026-05-25T08:24:37Z</time>
      </trkpt>
      <trkpt lat="45.39398" lon="5.63982">
        <ele>632</ele>
        <time>2026-05-25T08:24:38Z</time>
      </trkpt>
      <trkpt lat="45.3939" lon="5.63967">
        <ele>634</ele>
        <time>2026-05-25T08:24:41Z</time>
      </trkpt>
      <trkpt lat="45.39382" lon="5.6396">
        <ele>634</ele>
        <time>2026-05-25T08:24:43Z</time>
      </trkpt>
      <trkpt lat="45.39372" lon="5.63956">
        <ele>633</ele>
        <time>2026-05-25T08:24:46Z</time>
      </trkpt>
      <trkpt lat="45.39364" lon="5.63955">
        <ele>632</ele>
        <time>2026-05-25T08:24:48Z</time>
      </trkpt>
      <trkpt lat="45.39342" lon="5.63962">
        <ele>627</ele>
        <time>2026-05-25T08:24:53Z</time>
      </trkpt>
      <trkpt lat="45.39335" lon="5.63962">
        <ele>625</ele>
        <time>2026-05-25T08:24:55Z</time>
      </trkpt>
      <trkpt lat="45.39328" lon="5.63959">
        <ele>626</ele>
        <time>2026-05-25T08:24:56Z</time>
      </trkpt>
      <trkpt lat="45.39323" lon="5.63952">
        <ele>627</ele>
        <time>2026-05-25T08:24:58Z</time>
      </trkpt>
      <trkpt lat="45.39321" lon="5.63937">
        <ele>630</ele>
        <time>2026-05-25T08:25:00Z</time>
      </trkpt>
      <trkpt lat="45.39328" lon="5.63934">
        <ele>631</ele>
        <time>2026-05-25T08:25:02Z</time>
      </trkpt>
      <trkpt lat="45.39334" lon="5.63927">
        <ele>633</ele>
        <time>2026-05-25T08:25:04Z</time>
      </trkpt>
      <trkpt lat="45.39339" lon="5.6391">
        <ele>637</ele>
        <time>2026-05-25T08:25:07Z</time>
      </trkpt>
      <trkpt lat="45.39355" lon="5.63893">
        <ele>644</ele>
        <time>2026-05-25T08:25:12Z</time>
      </trkpt>
      <trkpt lat="45.39361" lon="5.6389">
        <ele>646</ele>
        <time>2026-05-25T08:25:13Z</time>
      </trkpt>
      <trkpt lat="45.39371" lon="5.63892">
        <ele>648</ele>
        <time>2026-05-25T08:25:16Z</time>
      </trkpt>
      <trkpt lat="45.39381" lon="5.63897">
        <ele>648</ele>
        <time>2026-05-25T08:25:18Z</time>
      </trkpt>
      <trkpt lat="45.39406" lon="5.63917">
        <ele>647</ele>
        <time>2026-05-25T08:25:25Z</time>
      </trkpt>
      <trkpt lat="45.39436" lon="5.6393">
        <ele>655</ele>
        <time>2026-05-25T08:25:32Z</time>
      </trkpt>
      <trkpt lat="45.39482" lon="5.63965">
        <ele>666</ele>
        <time>2026-05-25T08:25:44Z</time>
      </trkpt>
      <trkpt lat="45.395" lon="5.63992">
        <ele>665</ele>
        <time>2026-05-25T08:25:50Z</time>
      </trkpt>
      <trkpt lat="45.39512" lon="5.64003">
        <ele>667</ele>
        <time>2026-05-25T08:25:54Z</time>
      </trkpt>
      <trkpt lat="45.39533" lon="5.64008">
        <ele>673</ele>
        <time>2026-05-25T08:25:59Z</time>
      </trkpt>
      <trkpt lat="45.39563" lon="5.64006">
        <ele>685</ele>
        <time>2026-05-25T08:26:06Z</time>
      </trkpt>
      <trkpt lat="45.39576" lon="5.64009">
        <ele>689</ele>
        <time>2026-05-25T08:26:09Z</time>
      </trkpt>
      <trkpt lat="45.3958" lon="5.64012">
        <ele>689</ele>
        <time>2026-05-25T08:26:10Z</time>
      </trkpt>
      <trkpt lat="45.39583" lon="5.64012">
        <ele>690</ele>
        <time>2026-05-25T08:26:10Z</time>
      </trkpt>
      <trkpt lat="45.39584" lon="5.6401">
        <ele>692</ele>
        <time>2026-05-25T08:26:11Z</time>
      </trkpt>
      <trkpt lat="45.39584" lon="5.64006">
        <ele>693</ele>
        <time>2026-05-25T08:26:12Z</time>
      </trkpt>
      <trkpt lat="45.39581" lon="5.64002">
        <ele>694</ele>
        <time>2026-05-25T08:26:12Z</time>
      </trkpt>
      <trkpt lat="45.3957" lon="5.63994">
        <ele>693</ele>
        <time>2026-05-25T08:26:15Z</time>
      </trkpt>
      <trkpt lat="45.39556" lon="5.63982">
        <ele>691</ele>
        <time>2026-05-25T08:26:19Z</time>
      </trkpt>
      <trkpt lat="45.3954" lon="5.63956">
        <ele>692</ele>
        <time>2026-05-25T08:26:25Z</time>
      </trkpt>
      <trkpt lat="45.39536" lon="5.63943">
        <ele>694</ele>
        <time>2026-05-25T08:26:27Z</time>
      </trkpt>
      <trkpt lat="45.39535" lon="5.63894">
        <ele>709</ele>
        <time>2026-05-25T08:26:35Z</time>
      </trkpt>
      <trkpt lat="45.39526" lon="5.63869">
        <ele>713</ele>
        <time>2026-05-25T08:26:40Z</time>
      </trkpt>
      <trkpt lat="45.39515" lon="5.63822">
        <ele>723</ele>
        <time>2026-05-25T08:26:48Z</time>
      </trkpt>
      <trkpt lat="45.39499" lon="5.63793">
        <ele>726</ele>
        <time>2026-05-25T08:26:54Z</time>
      </trkpt>
      <trkpt lat="45.39489" lon="5.63789">
        <ele>723</ele>
        <time>2026-05-25T08:26:56Z</time>
      </trkpt>
      <trkpt lat="45.39486" lon="5.63776">
        <ele>726</ele>
        <time>2026-05-25T08:26:59Z</time>
      </trkpt>
      <trkpt lat="45.39487" lon="5.6377">
        <ele>728</ele>
        <time>2026-05-25T08:27:00Z</time>
      </trkpt>
      <trkpt lat="45.39493" lon="5.63767">
        <ele>732</ele>
        <time>2026-05-25T08:27:01Z</time>
      </trkpt>
      <trkpt lat="45.39511" lon="5.63771">
        <ele>737</ele>
        <time>2026-05-25T08:27:05Z</time>
      </trkpt>
      <trkpt lat="45.39534" lon="5.63792">
        <ele>740</ele>
        <time>2026-05-25T08:27:12Z</time>
      </trkpt>
      <trkpt lat="45.39558" lon="5.63819">
        <ele>741</ele>
        <time>2026-05-25T08:27:19Z</time>
      </trkpt>
      <trkpt lat="45.39564" lon="5.63825">
        <ele>742</ele>
        <time>2026-05-25T08:27:21Z</time>
      </trkpt>
      <trkpt lat="45.39585" lon="5.63843">
        <ele>745</ele>
        <time>2026-05-25T08:27:26Z</time>
      </trkpt>
      <trkpt lat="45.39611" lon="5.63872">
        <ele>743</ele>
        <time>2026-05-25T08:27:34Z</time>
      </trkpt>
      <trkpt lat="45.39631" lon="5.63886">
        <ele>744</ele>
        <time>2026-05-25T08:27:39Z</time>
      </trkpt>
      <trkpt lat="45.3965" lon="5.63894">
        <ele>747</ele>
        <time>2026-05-25T08:27:44Z</time>
      </trkpt>
      <trkpt lat="45.39675" lon="5.63896">
        <ele>753</ele>
        <time>2026-05-25T08:27:50Z</time>
      </trkpt>
      <trkpt lat="45.39708" lon="5.63913">
        <ele>755</ele>
        <time>2026-05-25T08:27:58Z</time>
      </trkpt>
      <trkpt lat="45.39728" lon="5.63929">
        <ele>756</ele>
        <time>2026-05-25T08:28:03Z</time>
      </trkpt>
      <trkpt lat="45.39752" lon="5.63947">
        <ele>757</ele>
        <time>2026-05-25T08:28:10Z</time>
      </trkpt>
      <trkpt lat="45.39775" lon="5.63969">
        <ele>754</ele>
        <time>2026-05-25T08:28:16Z</time>
      </trkpt>
      <trkpt lat="45.39784" lon="5.63976">
        <ele>754</ele>
        <time>2026-05-25T08:28:19Z</time>
      </trkpt>
      <trkpt lat="45.39817" lon="5.63993">
        <ele>754</ele>
        <time>2026-05-25T08:28:27Z</time>
      </trkpt>
      <trkpt lat="45.3984" lon="5.64007">
        <ele>754</ele>
        <time>2026-05-25T08:28:33Z</time>
      </trkpt>
      <trkpt lat="45.39877" lon="5.6403">
        <ele>755</ele>
        <time>2026-05-25T08:28:42Z</time>
      </trkpt>
      <trkpt lat="45.39908" lon="5.64052">
        <ele>757</ele>
        <time>2026-05-25T08:28:50Z</time>
      </trkpt>
      <trkpt lat="45.39914" lon="5.64052">
        <ele>758</ele>
        <time>2026-05-25T08:28:51Z</time>
      </trkpt>
      <trkpt lat="45.39922" lon="5.64047">
        <ele>760</ele>
        <time>2026-05-25T08:28:54Z</time>
      </trkpt>
      <trkpt lat="45.39933" lon="5.64026">
        <ele>763</ele>
        <time>2026-05-25T08:28:58Z</time>
      </trkpt>
      <trkpt lat="45.39949" lon="5.63989">
        <ele>770</ele>
        <time>2026-05-25T08:29:05Z</time>
      </trkpt>
      <trkpt lat="45.39953" lon="5.63986">
        <ele>771</ele>
        <time>2026-05-25T08:29:06Z</time>
      </trkpt>
      <trkpt lat="45.39957" lon="5.63988">
        <ele>771</ele>
        <time>2026-05-25T08:29:07Z</time>
      </trkpt>
      <trkpt lat="45.39965" lon="5.63997">
        <ele>773</ele>
        <time>2026-05-25T08:29:09Z</time>
      </trkpt>
      <trkpt lat="45.39973" lon="5.64016">
        <ele>772</ele>
        <time>2026-05-25T08:29:13Z</time>
      </trkpt>
      <trkpt lat="45.39978" lon="5.64022">
        <ele>773</ele>
        <time>2026-05-25T08:29:15Z</time>
      </trkpt>
      <trkpt lat="45.39992" lon="5.64037">
        <ele>774</ele>
        <time>2026-05-25T08:29:19Z</time>
      </trkpt>
      <trkpt lat="45.40007" lon="5.6405">
        <ele>775</ele>
        <time>2026-05-25T08:29:23Z</time>
      </trkpt>
      <trkpt lat="45.40053" lon="5.64095">
        <ele>780</ele>
        <time>2026-05-25T08:29:36Z</time>
      </trkpt>
      <trkpt lat="45.40112" lon="5.64125">
        <ele>788</ele>
        <time>2026-05-25T08:29:50Z</time>
      </trkpt>
      <trkpt lat="45.40158" lon="5.64207">
        <ele>783</ele>
        <time>2026-05-25T08:30:08Z</time>
      </trkpt>
      <trkpt lat="45.40174" lon="5.64262">
        <ele>778</ele>
        <time>2026-05-25T08:30:17Z</time>
      </trkpt>
      <trkpt lat="45.40183" lon="5.64281">
        <ele>778</ele>
        <time>2026-05-25T08:30:21Z</time>
      </trkpt>
      <trkpt lat="45.40201" lon="5.64301">
        <ele>779</ele>
        <time>2026-05-25T08:30:26Z</time>
      </trkpt>
      <trkpt lat="45.40235" lon="5.64317">
        <ele>782</ele>
        <time>2026-05-25T08:30:35Z</time>
      </trkpt>
      <trkpt lat="45.40266" lon="5.64309">
        <ele>783</ele>
        <time>2026-05-25T08:30:42Z</time>
      </trkpt>
      <trkpt lat="45.40296" lon="5.64283">
        <ele>785</ele>
        <time>2026-05-25T08:30:50Z</time>
      </trkpt>
      <trkpt lat="45.40354" lon="5.6424">
        <ele>790</ele>
        <time>2026-05-25T08:31:06Z</time>
      </trkpt>
      <trkpt lat="45.40384" lon="5.64216">
        <ele>790</ele>
        <time>2026-05-25T08:31:14Z</time>
      </trkpt>
      <trkpt lat="45.40409" lon="5.64219">
        <ele>785</ele>
        <time>2026-05-25T08:31:20Z</time>
      </trkpt>
      <trkpt lat="45.40439" lon="5.64226">
        <ele>777</ele>
        <time>2026-05-25T08:31:27Z</time>
      </trkpt>
      <trkpt lat="45.40491" lon="5.64202">
        <ele>769</ele>
        <time>2026-05-25T08:31:39Z</time>
      </trkpt>
      <trkpt lat="45.40522" lon="5.64182">
        <ele>764</ele>
        <time>2026-05-25T08:31:47Z</time>
      </trkpt>
      <trkpt lat="45.4053" lon="5.6417">
        <ele>764</ele>
        <time>2026-05-25T08:31:50Z</time>
      </trkpt>
      <trkpt lat="45.40562" lon="5.64163">
        <ele>758</ele>
        <time>2026-05-25T08:31:58Z</time>
      </trkpt>
      <trkpt lat="45.40563" lon="5.64143">
        <ele>758</ele>
        <time>2026-05-25T08:32:01Z</time>
      </trkpt>
      <trkpt lat="45.40561" lon="5.64117">
        <ele>757</ele>
        <time>2026-05-25T08:32:05Z</time>
      </trkpt>
      <trkpt lat="45.40557" lon="5.64088">
        <ele>757</ele>
        <time>2026-05-25T08:32:10Z</time>
      </trkpt>
      <trkpt lat="45.40548" lon="5.64056">
        <ele>759</ele>
        <time>2026-05-25T08:32:16Z</time>
      </trkpt>
      <trkpt lat="45.40522" lon="5.63978">
        <ele>760</ele>
        <time>2026-05-25T08:32:30Z</time>
      </trkpt>
      <trkpt lat="45.40517" lon="5.63959">
        <ele>757</ele>
        <time>2026-05-25T08:32:33Z</time>
      </trkpt>
      <trkpt lat="45.40514" lon="5.63945">
        <ele>755</ele>
        <time>2026-05-25T08:32:36Z</time>
      </trkpt>
      <trkpt lat="45.40512" lon="5.63922">
        <ele>753</ele>
        <time>2026-05-25T08:32:39Z</time>
      </trkpt>
      <trkpt lat="45.40511" lon="5.63894">
        <ele>749</ele>
        <time>2026-05-25T08:32:44Z</time>
      </trkpt>
      <trkpt lat="45.40511" lon="5.63869">
        <ele>746</ele>
        <time>2026-05-25T08:32:48Z</time>
      </trkpt>
      <trkpt lat="45.40517" lon="5.63789">
        <ele>737</ele>
        <time>2026-05-25T08:33:01Z</time>
      </trkpt>
      <trkpt lat="45.40526" lon="5.63712">
        <ele>726</ele>
        <time>2026-05-25T08:33:14Z</time>
      </trkpt>
      <trkpt lat="45.40533" lon="5.63661">
        <ele>717</ele>
        <time>2026-05-25T08:33:23Z</time>
      </trkpt>
      <trkpt lat="45.40543" lon="5.63614">
        <ele>709</ele>
        <time>2026-05-25T08:33:31Z</time>
      </trkpt>
      <trkpt lat="45.40548" lon="5.63596">
        <ele>705</ele>
        <time>2026-05-25T08:33:34Z</time>
      </trkpt>
      <trkpt lat="45.40558" lon="5.63576">
        <ele>698</ele>
        <time>2026-05-25T08:33:38Z</time>
      </trkpt>
      <trkpt lat="45.40561" lon="5.63566">
        <ele>695</ele>
        <time>2026-05-25T08:33:40Z</time>
      </trkpt>
      <trkpt lat="45.40563" lon="5.63556">
        <ele>693</ele>
        <time>2026-05-25T08:33:41Z</time>
      </trkpt>
      <trkpt lat="45.40565" lon="5.63543">
        <ele>690</ele>
        <time>2026-05-25T08:33:43Z</time>
      </trkpt>
      <trkpt lat="45.40569" lon="5.63499">
        <ele>680</ele>
        <time>2026-05-25T08:33:51Z</time>
      </trkpt>
      <trkpt lat="45.40571" lon="5.63491">
        <ele>678</ele>
        <time>2026-05-25T08:33:52Z</time>
      </trkpt>
      <trkpt lat="45.40575" lon="5.63482">
        <ele>675</ele>
        <time>2026-05-25T08:33:54Z</time>
      </trkpt>
      <trkpt lat="45.40583" lon="5.63483">
        <ele>672</ele>
        <time>2026-05-25T08:33:56Z</time>
      </trkpt>
      <trkpt lat="45.40613" lon="5.63467">
        <ele>671</ele>
        <time>2026-05-25T08:34:03Z</time>
      </trkpt>
      <trkpt lat="45.40648" lon="5.63438">
        <ele>668</ele>
        <time>2026-05-25T08:34:13Z</time>
      </trkpt>
      <trkpt lat="45.40661" lon="5.63412">
        <ele>666</ele>
        <time>2026-05-25T08:34:18Z</time>
      </trkpt>
      <trkpt lat="45.40658" lon="5.63379">
        <ele>663</ele>
        <time>2026-05-25T08:34:23Z</time>
      </trkpt>
      <trkpt lat="45.4067" lon="5.63343">
        <ele>662</ele>
        <time>2026-05-25T08:34:30Z</time>
      </trkpt>
      <trkpt lat="45.40683" lon="5.63325">
        <ele>663</ele>
        <time>2026-05-25T08:34:34Z</time>
      </trkpt>
      <trkpt lat="45.40674" lon="5.63315">
        <ele>662</ele>
        <time>2026-05-25T08:34:37Z</time>
      </trkpt>
      <trkpt lat="45.40657" lon="5.63291">
        <ele>660</ele>
        <time>2026-05-25T08:34:42Z</time>
      </trkpt>
      <trkpt lat="45.40631" lon="5.63252">
        <ele>658</ele>
        <time>2026-05-25T08:34:51Z</time>
      </trkpt>
      <trkpt lat="45.40621" lon="5.6323">
        <ele>658</ele>
        <time>2026-05-25T08:34:56Z</time>
      </trkpt>
      <trkpt lat="45.40614" lon="5.63203">
        <ele>658</ele>
        <time>2026-05-25T08:35:00Z</time>
      </trkpt>
      <trkpt lat="45.40608" lon="5.63182">
        <ele>658</ele>
        <time>2026-05-25T08:35:04Z</time>
      </trkpt>
      <trkpt lat="45.40604" lon="5.63175">
        <ele>657</ele>
        <time>2026-05-25T08:35:05Z</time>
      </trkpt>
      <trkpt lat="45.40626" lon="5.63131">
        <ele>665</ele>
        <time>2026-05-25T08:35:14Z</time>
      </trkpt>
      <trkpt lat="45.40629" lon="5.63122">
        <ele>667</ele>
        <time>2026-05-25T08:35:16Z</time>
      </trkpt>
      <trkpt lat="45.40629" lon="5.63111">
        <ele>667</ele>
        <time>2026-05-25T08:35:18Z</time>
      </trkpt>
      <trkpt lat="45.40621" lon="5.6305">
        <ele>666</ele>
        <time>2026-05-25T08:35:28Z</time>
      </trkpt>
      <trkpt lat="45.4062" lon="5.63029">
        <ele>666</ele>
        <time>2026-05-25T08:35:31Z</time>
      </trkpt>
      <trkpt lat="45.40623" lon="5.6301">
        <ele>667</ele>
        <time>2026-05-25T08:35:35Z</time>
      </trkpt>
      <trkpt lat="45.40633" lon="5.62991">
        <ele>671</ele>
        <time>2026-05-25T08:35:38Z</time>
      </trkpt>
      <trkpt lat="45.40641" lon="5.62981">
        <ele>673</ele>
        <time>2026-05-25T08:35:41Z</time>
      </trkpt>
      <trkpt lat="45.4065" lon="5.62974">
        <ele>676</ele>
        <time>2026-05-25T08:35:43Z</time>
      </trkpt>
      <trkpt lat="45.40672" lon="5.62965">
        <ele>683</ele>
        <time>2026-05-25T08:35:49Z</time>
      </trkpt>
      <trkpt lat="45.40682" lon="5.62957">
        <ele>686</ele>
        <time>2026-05-25T08:35:51Z</time>
      </trkpt>
      <trkpt lat="45.4069" lon="5.62945">
        <ele>688</ele>
        <time>2026-05-25T08:35:54Z</time>
      </trkpt>
      <trkpt lat="45.40694" lon="5.62931">
        <ele>687</ele>
        <time>2026-05-25T08:35:57Z</time>
      </trkpt>
      <trkpt lat="45.40699" lon="5.62912">
        <ele>688</ele>
        <time>2026-05-25T08:36:00Z</time>
      </trkpt>
      <trkpt lat="45.40695" lon="5.62871">
        <ele>689</ele>
        <time>2026-05-25T08:36:07Z</time>
      </trkpt>
      <trkpt lat="45.40692" lon="5.62826">
        <ele>691</ele>
        <time>2026-05-25T08:36:14Z</time>
      </trkpt>
      <trkpt lat="45.40694" lon="5.62808">
        <ele>693</ele>
        <time>2026-05-25T08:36:17Z</time>
      </trkpt>
      <trkpt lat="45.40696" lon="5.62793">
        <ele>695</ele>
        <time>2026-05-25T08:36:20Z</time>
      </trkpt>
      <trkpt lat="45.40702" lon="5.62777">
        <ele>700</ele>
        <time>2026-05-25T08:36:23Z</time>
      </trkpt>
      <trkpt lat="45.40708" lon="5.62764">
        <ele>704</ele>
        <time>2026-05-25T08:36:25Z</time>
      </trkpt>
      <trkpt lat="45.40713" lon="5.62723">
        <ele>709</ele>
        <time>2026-05-25T08:36:32Z</time>
      </trkpt>
      <trkpt lat="45.40721" lon="5.62619">
        <ele>713</ele>
        <time>2026-05-25T08:36:49Z</time>
      </trkpt>
      <trkpt lat="45.40726" lon="5.62583">
        <ele>714</ele>
        <time>2026-05-25T08:36:55Z</time>
      </trkpt>
      <trkpt lat="45.4073" lon="5.62572">
        <ele>715</ele>
        <time>2026-05-25T08:36:57Z</time>
      </trkpt>
      <trkpt lat="45.40735" lon="5.62566">
        <ele>716</ele>
        <time>2026-05-25T08:36:59Z</time>
      </trkpt>
      <trkpt lat="45.40739" lon="5.62564">
        <ele>717</ele>
        <time>2026-05-25T08:37:00Z</time>
      </trkpt>
      <trkpt lat="45.40779" lon="5.62568">
        <ele>712</ele>
        <time>2026-05-25T08:37:09Z</time>
      </trkpt>
      <trkpt lat="45.40773" lon="5.62536">
        <ele>709</ele>
        <time>2026-05-25T08:37:14Z</time>
      </trkpt>
      <trkpt lat="45.4077" lon="5.62508">
        <ele>706</ele>
        <time>2026-05-25T08:37:19Z</time>
      </trkpt>
      <trkpt lat="45.40768" lon="5.62475">
        <ele>702</ele>
        <time>2026-05-25T08:37:24Z</time>
      </trkpt>
      <trkpt lat="45.40754" lon="5.62391">
        <ele>699</ele>
        <time>2026-05-25T08:37:39Z</time>
      </trkpt>
      <trkpt lat="45.40752" lon="5.62288">
        <ele>683</ele>
        <time>2026-05-25T08:37:56Z</time>
      </trkpt>
      <trkpt lat="45.40746" lon="5.62226">
        <ele>679</ele>
        <time>2026-05-25T08:38:06Z</time>
      </trkpt>
      <trkpt lat="45.40746" lon="5.62216">
        <ele>678</ele>
        <time>2026-05-25T08:38:07Z</time>
      </trkpt>
      <trkpt lat="45.40755" lon="5.62082">
        <ele>659</ele>
        <time>2026-05-25T08:38:30Z</time>
      </trkpt>
      <trkpt lat="45.40762" lon="5.61943">
        <ele>646</ele>
        <time>2026-05-25T08:38:52Z</time>
      </trkpt>
      <trkpt lat="45.40761" lon="5.61763">
        <ele>631</ele>
        <time>2026-05-25T08:39:22Z</time>
      </trkpt>
      <trkpt lat="45.40769" lon="5.61694">
        <ele>622</ele>
        <time>2026-05-25T08:39:33Z</time>
      </trkpt>
      <trkpt lat="45.40772" lon="5.61686">
        <ele>620</ele>
        <time>2026-05-25T08:39:35Z</time>
      </trkpt>
      <trkpt lat="45.40786" lon="5.61639">
        <ele>614</ele>
        <time>2026-05-25T08:39:43Z</time>
      </trkpt>
      <trkpt lat="45.40807" lon="5.61598">
        <ele>609</ele>
        <time>2026-05-25T08:39:52Z</time>
      </trkpt>
      <trkpt lat="45.40807" lon="5.61575">
        <ele>608</ele>
        <time>2026-05-25T08:39:55Z</time>
      </trkpt>
      <trkpt lat="45.40801" lon="5.61548">
        <ele>607</ele>
        <time>2026-05-25T08:40:00Z</time>
      </trkpt>
      <trkpt lat="45.40786" lon="5.61531">
        <ele>607</ele>
        <time>2026-05-25T08:40:04Z</time>
      </trkpt>
      <trkpt lat="45.4076" lon="5.61507">
        <ele>606</ele>
        <time>2026-05-25T08:40:12Z</time>
      </trkpt>
      <trkpt lat="45.40712" lon="5.61411">
        <ele>596</ele>
        <time>2026-05-25T08:40:31Z</time>
      </trkpt>
      <trkpt lat="45.40708" lon="5.61392">
        <ele>594</ele>
        <time>2026-05-25T08:40:34Z</time>
      </trkpt>
      <trkpt lat="45.40707" lon="5.61302">
        <ele>583</ele>
        <time>2026-05-25T08:40:49Z</time>
      </trkpt>
      <trkpt lat="45.4073" lon="5.6131">
        <ele>585</ele>
        <time>2026-05-25T08:40:55Z</time>
      </trkpt>
      <trkpt lat="45.40743" lon="5.61304">
        <ele>586</ele>
        <time>2026-05-25T08:40:58Z</time>
      </trkpt>
      <trkpt lat="45.40763" lon="5.61305">
        <ele>588</ele>
        <time>2026-05-25T08:41:02Z</time>
      </trkpt>
      <trkpt lat="45.40817" lon="5.61334">
        <ele>594</ele>
        <time>2026-05-25T08:41:16Z</time>
      </trkpt>
      <trkpt lat="45.40834" lon="5.61288">
        <ele>594</ele>
        <time>2026-05-25T08:41:24Z</time>
      </trkpt>
      <trkpt lat="45.40851" lon="5.61228">
        <ele>592</ele>
        <time>2026-05-25T08:41:35Z</time>
      </trkpt>
      <trkpt lat="45.40873" lon="5.61193">
        <ele>590</ele>
        <time>2026-05-25T08:41:43Z</time>
      </trkpt>
      <trkpt lat="45.40889" lon="5.61149">
        <ele>589</ele>
        <time>2026-05-25T08:41:51Z</time>
      </trkpt>
      <trkpt lat="45.40889" lon="5.61137">
        <ele>589</ele>
        <time>2026-05-25T08:41:53Z</time>
      </trkpt>
      <trkpt lat="45.4091" lon="5.6107">
        <ele>596</ele>
        <time>2026-05-25T08:42:05Z</time>
      </trkpt>
      <trkpt lat="45.40924" lon="5.61047">
        <ele>600</ele>
        <time>2026-05-25T08:42:10Z</time>
      </trkpt>
      <trkpt lat="45.40944" lon="5.61029">
        <ele>602</ele>
        <time>2026-05-25T08:42:15Z</time>
      </trkpt>
      <trkpt lat="45.40969" lon="5.60995">
        <ele>603</ele>
        <time>2026-05-25T08:42:23Z</time>
      </trkpt>
      <trkpt lat="45.4099" lon="5.60969">
        <ele>601</ele>
        <time>2026-05-25T08:42:30Z</time>
      </trkpt>
      <trkpt lat="45.40977" lon="5.60893">
        <ele>614</ele>
        <time>2026-05-25T08:42:43Z</time>
      </trkpt>
      <trkpt lat="45.40945" lon="5.60844">
        <ele>637</ele>
        <time>2026-05-25T08:42:54Z</time>
      </trkpt>
      <trkpt lat="45.40926" lon="5.60805">
        <ele>651</ele>
        <time>2026-05-25T08:43:01Z</time>
      </trkpt>
      <trkpt lat="45.40931" lon="5.6078">
        <ele>649</ele>
        <time>2026-05-25T08:43:06Z</time>
      </trkpt>
      <trkpt lat="45.40931" lon="5.60771">
        <ele>650</ele>
        <time>2026-05-25T08:43:07Z</time>
      </trkpt>
      <trkpt lat="45.40928" lon="5.60639">
        <ele>633</ele>
        <time>2026-05-25T08:43:29Z</time>
      </trkpt>
      <trkpt lat="45.40919" lon="5.60508">
        <ele>618</ele>
        <time>2026-05-25T08:43:50Z</time>
      </trkpt>
      <trkpt lat="45.40912" lon="5.60466">
        <ele>614</ele>
        <time>2026-05-25T08:43:58Z</time>
      </trkpt>
      <trkpt lat="45.40907" lon="5.60446">
        <ele>611</ele>
        <time>2026-05-25T08:44:01Z</time>
      </trkpt>
      <trkpt lat="45.40908" lon="5.60429">
        <ele>608</ele>
        <time>2026-05-25T08:44:04Z</time>
      </trkpt>
      <trkpt lat="45.40922" lon="5.60384">
        <ele>599</ele>
        <time>2026-05-25T08:44:12Z</time>
      </trkpt>
      <trkpt lat="45.40927" lon="5.60324">
        <ele>589</ele>
        <time>2026-05-25T08:44:22Z</time>
      </trkpt>
      <trkpt lat="45.4092" lon="5.60301">
        <ele>590</ele>
        <time>2026-05-25T08:44:26Z</time>
      </trkpt>
      <trkpt lat="45.40921" lon="5.60279">
        <ele>588</ele>
        <time>2026-05-25T08:44:29Z</time>
      </trkpt>
      <trkpt lat="45.40919" lon="5.60265">
        <ele>587</ele>
        <time>2026-05-25T08:44:32Z</time>
      </trkpt>
      <trkpt lat="45.40879" lon="5.60189">
        <ele>571</ele>
        <time>2026-05-25T08:44:47Z</time>
      </trkpt>
      <trkpt lat="45.40874" lon="5.6017">
        <ele>567</ele>
        <time>2026-05-25T08:44:51Z</time>
      </trkpt>
      <trkpt lat="45.40872" lon="5.60147">
        <ele>562</ele>
        <time>2026-05-25T08:44:55Z</time>
      </trkpt>
      <trkpt lat="45.4087" lon="5.60135">
        <ele>560</ele>
        <time>2026-05-25T08:44:57Z</time>
      </trkpt>
      <trkpt lat="45.40863" lon="5.60124">
        <ele>558</ele>
        <time>2026-05-25T08:44:59Z</time>
      </trkpt>
      <trkpt lat="45.40839" lon="5.60107">
        <ele>554</ele>
        <time>2026-05-25T08:45:05Z</time>
      </trkpt>
      <trkpt lat="45.40859" lon="5.60098">
        <ele>553</ele>
        <time>2026-05-25T08:45:10Z</time>
      </trkpt>
      <trkpt lat="45.4087" lon="5.60086">
        <ele>552</ele>
        <time>2026-05-25T08:45:13Z</time>
      </trkpt>
      <trkpt lat="45.40834" lon="5.60062">
        <ele>552</ele>
        <time>2026-05-25T08:45:23Z</time>
      </trkpt>
      <trkpt lat="45.40803" lon="5.60045">
        <ele>552</ele>
        <time>2026-05-25T08:45:30Z</time>
      </trkpt>
      <trkpt lat="45.40761" lon="5.60037">
        <ele>551</ele>
        <time>2026-05-25T08:45:40Z</time>
      </trkpt>
      <trkpt lat="45.4075" lon="5.60034">
        <ele>551</ele>
        <time>2026-05-25T08:45:43Z</time>
      </trkpt>
      <trkpt lat="45.40741" lon="5.60033">
        <ele>550</ele>
        <time>2026-05-25T08:45:45Z</time>
      </trkpt>
      <trkpt lat="45.4073" lon="5.60029">
        <ele>549</ele>
        <time>2026-05-25T08:45:48Z</time>
      </trkpt>
      <trkpt lat="45.40723" lon="5.60024">
        <ele>548</ele>
        <time>2026-05-25T08:45:50Z</time>
      </trkpt>
      <trkpt lat="45.40716" lon="5.60017">
        <ele>547</ele>
        <time>2026-05-25T08:45:52Z</time>
      </trkpt>
      <trkpt lat="45.40705" lon="5.59996">
        <ele>546</ele>
        <time>2026-05-25T08:45:56Z</time>
      </trkpt>
      <trkpt lat="45.407" lon="5.59983">
        <ele>547</ele>
        <time>2026-05-25T08:45:58Z</time>
      </trkpt>
      <trkpt lat="45.40693" lon="5.59972">
        <ele>546</ele>
        <time>2026-05-25T08:46:01Z</time>
      </trkpt>
      <trkpt lat="45.40629" lon="5.5988">
        <ele>544</ele>
        <time>2026-05-25T08:46:22Z</time>
      </trkpt>
      <trkpt lat="45.40586" lon="5.59831">
        <ele>537</ele>
        <time>2026-05-25T08:46:35Z</time>
      </trkpt>
      <trkpt lat="45.40557" lon="5.59807">
        <ele>537</ele>
        <time>2026-05-25T08:46:43Z</time>
      </trkpt>
      <trkpt lat="45.40522" lon="5.5972">
        <ele>537</ele>
        <time>2026-05-25T08:46:59Z</time>
      </trkpt>
      <trkpt lat="45.40509" lon="5.59699">
        <ele>534</ele>
        <time>2026-05-25T08:47:04Z</time>
      </trkpt>
      <trkpt lat="45.40496" lon="5.59681">
        <ele>530</ele>
        <time>2026-05-25T08:47:08Z</time>
      </trkpt>
      <trkpt lat="45.40481" lon="5.59665">
        <ele>528</ele>
        <time>2026-05-25T08:47:12Z</time>
      </trkpt>
      <trkpt lat="45.40466" lon="5.59651">
        <ele>529</ele>
        <time>2026-05-25T08:47:16Z</time>
      </trkpt>
      <trkpt lat="45.40457" lon="5.59645">
        <ele>529</ele>
        <time>2026-05-25T08:47:19Z</time>
      </trkpt>
      <trkpt lat="45.40446" lon="5.59642">
        <ele>527</ele>
        <time>2026-05-25T08:47:21Z</time>
      </trkpt>
      <trkpt lat="45.40428" lon="5.59644">
        <ele>524</ele>
        <time>2026-05-25T08:47:26Z</time>
      </trkpt>
      <trkpt lat="45.40414" lon="5.59649">
        <ele>521</ele>
        <time>2026-05-25T08:47:29Z</time>
      </trkpt>
      <trkpt lat="45.40404" lon="5.59651">
        <ele>520</ele>
        <time>2026-05-25T08:47:31Z</time>
      </trkpt>
      <trkpt lat="45.40398" lon="5.59652">
        <ele>520</ele>
        <time>2026-05-25T08:47:33Z</time>
      </trkpt>
      <trkpt lat="45.40383" lon="5.59651">
        <ele>519</ele>
        <time>2026-05-25T08:47:36Z</time>
      </trkpt>
      <trkpt lat="45.40375" lon="5.59647">
        <ele>519</ele>
        <time>2026-05-25T08:47:38Z</time>
      </trkpt>
      <trkpt lat="45.40345" lon="5.59632">
        <ele>517</ele>
        <time>2026-05-25T08:47:46Z</time>
      </trkpt>
      <trkpt lat="45.40328" lon="5.59621">
        <ele>515</ele>
        <time>2026-05-25T08:47:50Z</time>
      </trkpt>
      <trkpt lat="45.4032" lon="5.59611">
        <ele>515</ele>
        <time>2026-05-25T08:47:52Z</time>
      </trkpt>
      <trkpt lat="45.40299" lon="5.59581">
        <ele>514</ele>
        <time>2026-05-25T08:47:59Z</time>
      </trkpt>
      <trkpt lat="45.40265" lon="5.5953">
        <ele>515</ele>
        <time>2026-05-25T08:48:11Z</time>
      </trkpt>
      <trkpt lat="45.40243" lon="5.595">
        <ele>514</ele>
        <time>2026-05-25T08:48:18Z</time>
      </trkpt>
      <trkpt lat="45.40216" lon="5.59469">
        <ele>519</ele>
        <time>2026-05-25T08:48:26Z</time>
      </trkpt>
      <trkpt lat="45.40186" lon="5.59429">
        <ele>519</ele>
        <time>2026-05-25T08:48:36Z</time>
      </trkpt>
      <trkpt lat="45.40166" lon="5.59403">
        <ele>517</ele>
        <time>2026-05-25T08:48:42Z</time>
      </trkpt>
      <trkpt lat="45.40142" lon="5.59381">
        <ele>516</ele>
        <time>2026-05-25T08:48:49Z</time>
      </trkpt>
      <trkpt lat="45.40111" lon="5.59359">
        <ele>513</ele>
        <time>2026-05-25T08:48:57Z</time>
      </trkpt>
      <trkpt lat="45.40071" lon="5.5933">
        <ele>507</ele>
        <time>2026-05-25T08:49:07Z</time>
      </trkpt>
      <trkpt lat="45.40063" lon="5.59319">
        <ele>507</ele>
        <time>2026-05-25T08:49:10Z</time>
      </trkpt>
      <trkpt lat="45.40048" lon="5.59297">
        <ele>507</ele>
        <time>2026-05-25T08:49:15Z</time>
      </trkpt>
      <trkpt lat="45.40037" lon="5.59276">
        <ele>507</ele>
        <time>2026-05-25T08:49:19Z</time>
      </trkpt>
      <trkpt lat="45.40029" lon="5.59271">
        <ele>506</ele>
        <time>2026-05-25T08:49:21Z</time>
      </trkpt>
      <trkpt lat="45.40036" lon="5.59262">
        <ele>508</ele>
        <time>2026-05-25T08:49:23Z</time>
      </trkpt>
      <trkpt lat="45.40038" lon="5.59253">
        <ele>508</ele>
        <time>2026-05-25T08:49:25Z</time>
      </trkpt>
      <trkpt lat="45.40037" lon="5.59241">
        <ele>508</ele>
        <time>2026-05-25T08:49:27Z</time>
      </trkpt>
      <trkpt lat="45.40036" lon="5.59228">
        <ele>509</ele>
        <time>2026-05-25T08:49:29Z</time>
      </trkpt>
      <trkpt lat="45.40033" lon="5.59202">
        <ele>509</ele>
        <time>2026-05-25T08:49:33Z</time>
      </trkpt>
      <trkpt lat="45.40039" lon="5.59202">
        <ele>509</ele>
        <time>2026-05-25T08:49:35Z</time>
      </trkpt>
      <trkpt lat="45.40055" lon="5.5919">
        <ele>512</ele>
        <time>2026-05-25T08:49:39Z</time>
      </trkpt>
      <trkpt lat="45.40062" lon="5.5914">
        <ele>515</ele>
        <time>2026-05-25T08:49:47Z</time>
      </trkpt>
      <trkpt lat="45.40079" lon="5.59093">
        <ele>520</ele>
        <time>2026-05-25T08:49:56Z</time>
      </trkpt>
      <trkpt lat="45.40112" lon="5.59076">
        <ele>523</ele>
        <time>2026-05-25T08:50:04Z</time>
      </trkpt>
      <trkpt lat="45.40164" lon="5.59048">
        <ele>528</ele>
        <time>2026-05-25T08:50:17Z</time>
      </trkpt>
      <trkpt lat="45.40189" lon="5.59039">
        <ele>533</ele>
        <time>2026-05-25T08:50:23Z</time>
      </trkpt>
      <trkpt lat="45.40195" lon="5.59034">
        <ele>534</ele>
        <time>2026-05-25T08:50:25Z</time>
      </trkpt>
      <trkpt lat="45.40207" lon="5.59023">
        <ele>537</ele>
        <time>2026-05-25T08:50:28Z</time>
      </trkpt>
      <trkpt lat="45.40226" lon="5.58986">
        <ele>540</ele>
        <time>2026-05-25T08:50:36Z</time>
      </trkpt>
      <trkpt lat="45.40238" lon="5.58953">
        <ele>540</ele>
        <time>2026-05-25T08:50:42Z</time>
      </trkpt>
      <trkpt lat="45.40206" lon="5.58875">
        <ele>536</ele>
        <time>2026-05-25T08:50:57Z</time>
      </trkpt>
      <trkpt lat="45.40196" lon="5.58856">
        <ele>535</ele>
        <time>2026-05-25T08:51:01Z</time>
      </trkpt>
      <trkpt lat="45.4018" lon="5.58827">
        <ele>533</ele>
        <time>2026-05-25T08:51:07Z</time>
      </trkpt>
      <trkpt lat="45.40175" lon="5.58793">
        <ele>534</ele>
        <time>2026-05-25T08:51:12Z</time>
      </trkpt>
      <trkpt lat="45.40173" lon="5.58759">
        <ele>535</ele>
        <time>2026-05-25T08:51:18Z</time>
      </trkpt>
      <trkpt lat="45.40172" lon="5.58675">
        <ele>538</ele>
        <time>2026-05-25T08:51:32Z</time>
      </trkpt>
      <trkpt lat="45.40162" lon="5.58642">
        <ele>537</ele>
        <time>2026-05-25T08:51:38Z</time>
      </trkpt>
      <trkpt lat="45.40156" lon="5.58581">
        <ele>537</ele>
        <time>2026-05-25T08:51:48Z</time>
      </trkpt>
      <trkpt lat="45.40157" lon="5.58564">
        <ele>538</ele>
        <time>2026-05-25T08:51:51Z</time>
      </trkpt>
      <trkpt lat="45.40173" lon="5.58586">
        <ele>540</ele>
        <time>2026-05-25T08:51:56Z</time>
      </trkpt>
      <trkpt lat="45.40178" lon="5.58591">
        <ele>541</ele>
        <time>2026-05-25T08:51:57Z</time>
      </trkpt>
      <trkpt lat="45.40182" lon="5.58595">
        <ele>542</ele>
        <time>2026-05-25T08:51:58Z</time>
      </trkpt>
      <trkpt lat="45.40186" lon="5.58596">
        <ele>543</ele>
        <time>2026-05-25T08:51:59Z</time>
      </trkpt>
      <trkpt lat="45.40193" lon="5.58595">
        <ele>544</ele>
        <time>2026-05-25T08:52:01Z</time>
      </trkpt>
      <trkpt lat="45.40197" lon="5.58591">
        <ele>545</ele>
        <time>2026-05-25T08:52:02Z</time>
      </trkpt>
      <trkpt lat="45.402" lon="5.58586">
        <ele>546</ele>
        <time>2026-05-25T08:52:03Z</time>
      </trkpt>
      <trkpt lat="45.40202" lon="5.58577">
        <ele>546</ele>
        <time>2026-05-25T08:52:05Z</time>
      </trkpt>
      <trkpt lat="45.40202" lon="5.58571">
        <ele>547</ele>
        <time>2026-05-25T08:52:06Z</time>
      </trkpt>
      <trkpt lat="45.40201" lon="5.58539">
        <ele>548</ele>
        <time>2026-05-25T08:52:11Z</time>
      </trkpt>
      <trkpt lat="45.40205" lon="5.58374">
        <ele>549</ele>
        <time>2026-05-25T08:52:38Z</time>
      </trkpt>
      <trkpt lat="45.40207" lon="5.58354">
        <ele>548</ele>
        <time>2026-05-25T08:52:41Z</time>
      </trkpt>
      <trkpt lat="45.4021" lon="5.5834">
        <ele>548</ele>
        <time>2026-05-25T08:52:44Z</time>
      </trkpt>
      <trkpt lat="45.40216" lon="5.58327">
        <ele>548</ele>
        <time>2026-05-25T08:52:46Z</time>
      </trkpt>
      <trkpt lat="45.40222" lon="5.58315">
        <ele>549</ele>
        <time>2026-05-25T08:52:49Z</time>
      </trkpt>
      <trkpt lat="45.40229" lon="5.58305">
        <ele>550</ele>
        <time>2026-05-25T08:52:51Z</time>
      </trkpt>
      <trkpt lat="45.40266" lon="5.58267">
        <ele>554</ele>
        <time>2026-05-25T08:53:02Z</time>
      </trkpt>
      <trkpt lat="45.40283" lon="5.5825">
        <ele>556</ele>
        <time>2026-05-25T08:53:06Z</time>
      </trkpt>
      <trkpt lat="45.40301" lon="5.58238">
        <ele>559</ele>
        <time>2026-05-25T08:53:11Z</time>
      </trkpt>
      <trkpt lat="45.40331" lon="5.58217">
        <ele>564</ele>
        <time>2026-05-25T08:53:19Z</time>
      </trkpt>
      <trkpt lat="45.40348" lon="5.58205">
        <ele>565</ele>
        <time>2026-05-25T08:53:23Z</time>
      </trkpt>
      <trkpt lat="45.40356" lon="5.582">
        <ele>566</ele>
        <time>2026-05-25T08:53:25Z</time>
      </trkpt>
      <trkpt lat="45.40402" lon="5.58182">
        <ele>570</ele>
        <time>2026-05-25T08:53:37Z</time>
      </trkpt>
      <trkpt lat="45.40409" lon="5.5818">
        <ele>570</ele>
        <time>2026-05-25T08:53:38Z</time>
      </trkpt>
      <trkpt lat="45.40415" lon="5.5818">
        <ele>571</ele>
        <time>2026-05-25T08:53:40Z</time>
      </trkpt>
      <trkpt lat="45.4044" lon="5.58191">
        <ele>577</ele>
        <time>2026-05-25T08:53:46Z</time>
      </trkpt>
      <trkpt lat="45.40478" lon="5.58193">
        <ele>584</ele>
        <time>2026-05-25T08:53:55Z</time>
      </trkpt>
      <trkpt lat="45.40478" lon="5.58185">
        <ele>584</ele>
        <time>2026-05-25T08:53:56Z</time>
      </trkpt>
      <trkpt lat="45.40473" lon="5.58177">
        <ele>583</ele>
        <time>2026-05-25T08:53:58Z</time>
      </trkpt>
      <trkpt lat="45.40467" lon="5.58167">
        <ele>581</ele>
        <time>2026-05-25T08:54:00Z</time>
      </trkpt>
      <trkpt lat="45.40445" lon="5.58145">
        <ele>578</ele>
        <time>2026-05-25T08:54:06Z</time>
      </trkpt>
      <trkpt lat="45.40435" lon="5.5812">
        <ele>578</ele>
        <time>2026-05-25T08:54:11Z</time>
      </trkpt>
      <trkpt lat="45.40404" lon="5.58054">
        <ele>576</ele>
        <time>2026-05-25T08:54:24Z</time>
      </trkpt>
      <trkpt lat="45.40374" lon="5.58012">
        <ele>573</ele>
        <time>2026-05-25T08:54:34Z</time>
      </trkpt>
      <trkpt lat="45.40348" lon="5.57972">
        <ele>571</ele>
        <time>2026-05-25T08:54:43Z</time>
      </trkpt>
      <trkpt lat="45.4034" lon="5.5795">
        <ele>572</ele>
        <time>2026-05-25T08:54:47Z</time>
      </trkpt>
      <trkpt lat="45.40341" lon="5.57915">
        <ele>576</ele>
        <time>2026-05-25T08:54:52Z</time>
      </trkpt>
      <trkpt lat="45.4037" lon="5.57842">
        <ele>577</ele>
        <time>2026-05-25T08:55:06Z</time>
      </trkpt>
      <trkpt lat="45.40381" lon="5.57812">
        <ele>576</ele>
        <time>2026-05-25T08:55:12Z</time>
      </trkpt>
      <trkpt lat="45.40432" lon="5.57715">
        <ele>572</ele>
        <time>2026-05-25T08:55:32Z</time>
      </trkpt>
      <trkpt lat="45.40423" lon="5.57699">
        <ele>568</ele>
        <time>2026-05-25T08:55:35Z</time>
      </trkpt>
      <trkpt lat="45.40402" lon="5.57681">
        <ele>564</ele>
        <time>2026-05-25T08:55:41Z</time>
      </trkpt>
      <trkpt lat="45.40402" lon="5.5768">
        <ele>564</ele>
        <time>2026-05-25T08:55:41Z</time>
      </trkpt>
      <trkpt lat="45.40401" lon="5.57675">
        <ele>564</ele>
        <time>2026-05-25T08:55:42Z</time>
      </trkpt>
      <trkpt lat="45.40482" lon="5.57567">
        <ele>559</ele>
        <time>2026-05-25T08:56:08Z</time>
      </trkpt>
      <trkpt lat="45.40518" lon="5.5751">
        <ele>560</ele>
        <time>2026-05-25T08:56:20Z</time>
      </trkpt>
      <trkpt lat="45.40518" lon="5.57494">
        <ele>559</ele>
        <time>2026-05-25T08:56:23Z</time>
      </trkpt>
      <trkpt lat="45.4051" lon="5.57446">
        <ele>555</ele>
        <time>2026-05-25T08:56:31Z</time>
      </trkpt>
      <trkpt lat="45.4051" lon="5.57376">
        <ele>553</ele>
        <time>2026-05-25T08:56:42Z</time>
      </trkpt>
      <trkpt lat="45.40514" lon="5.57308">
        <ele>552</ele>
        <time>2026-05-25T08:56:54Z</time>
      </trkpt>
      <trkpt lat="45.40518" lon="5.57281">
        <ele>552</ele>
        <time>2026-05-25T08:56:58Z</time>
      </trkpt>
      <trkpt lat="45.40523" lon="5.57232">
        <ele>548</ele>
        <time>2026-05-25T08:57:06Z</time>
      </trkpt>
      <trkpt lat="45.40527" lon="5.57211">
        <ele>545</ele>
        <time>2026-05-25T08:57:10Z</time>
      </trkpt>
      <trkpt lat="45.40531" lon="5.572">
        <ele>544</ele>
        <time>2026-05-25T08:57:12Z</time>
      </trkpt>
      <trkpt lat="45.40537" lon="5.57192">
        <ele>544</ele>
        <time>2026-05-25T08:57:14Z</time>
      </trkpt>
      <trkpt lat="45.40546" lon="5.57181">
        <ele>544</ele>
        <time>2026-05-25T08:57:16Z</time>
      </trkpt>
      <trkpt lat="45.40559" lon="5.5717">
        <ele>544</ele>
        <time>2026-05-25T08:57:20Z</time>
      </trkpt>
      <trkpt lat="45.40584" lon="5.57163">
        <ele>546</ele>
        <time>2026-05-25T08:57:26Z</time>
      </trkpt>
      <trkpt lat="45.40606" lon="5.57163">
        <ele>547</ele>
        <time>2026-05-25T08:57:31Z</time>
      </trkpt>
      <trkpt lat="45.40625" lon="5.57154">
        <ele>547</ele>
        <time>2026-05-25T08:57:36Z</time>
      </trkpt>
      <trkpt lat="45.4063" lon="5.57145">
        <ele>546</ele>
        <time>2026-05-25T08:57:38Z</time>
      </trkpt>
      <trkpt lat="45.40634" lon="5.57133">
        <ele>545</ele>
        <time>2026-05-25T08:57:40Z</time>
      </trkpt>
      <trkpt lat="45.40637" lon="5.57122">
        <ele>544</ele>
        <time>2026-05-25T08:57:42Z</time>
      </trkpt>
      <trkpt lat="45.40638" lon="5.57118">
        <ele>544</ele>
        <time>2026-05-25T08:57:42Z</time>
      </trkpt>
      <trkpt lat="45.40639" lon="5.57108">
        <ele>542</ele>
        <time>2026-05-25T08:57:44Z</time>
      </trkpt>
      <trkpt lat="45.40637" lon="5.57097">
        <ele>541</ele>
        <time>2026-05-25T08:57:46Z</time>
      </trkpt>
      <trkpt lat="45.40634" lon="5.57088">
        <ele>539</ele>
        <time>2026-05-25T08:57:48Z</time>
      </trkpt>
      <trkpt lat="45.40617" lon="5.57063">
        <ele>534</ele>
        <time>2026-05-25T08:57:53Z</time>
      </trkpt>
      <trkpt lat="45.40617" lon="5.57035">
        <ele>531</ele>
        <time>2026-05-25T08:57:58Z</time>
      </trkpt>
      <trkpt lat="45.40618" lon="5.57013">
        <ele>529</ele>
        <time>2026-05-25T08:58:01Z</time>
      </trkpt>
      <trkpt lat="45.40624" lon="5.56973">
        <ele>525</ele>
        <time>2026-05-25T08:58:08Z</time>
      </trkpt>
      <trkpt lat="45.4062" lon="5.56932">
        <ele>519</ele>
        <time>2026-05-25T08:58:15Z</time>
      </trkpt>
      <trkpt lat="45.40618" lon="5.56921">
        <ele>517</ele>
        <time>2026-05-25T08:58:17Z</time>
      </trkpt>
      <trkpt lat="45.40613" lon="5.56907">
        <ele>515</ele>
        <time>2026-05-25T08:58:19Z</time>
      </trkpt>
      <trkpt lat="45.40608" lon="5.56897">
        <ele>513</ele>
        <time>2026-05-25T08:58:21Z</time>
      </trkpt>
      <trkpt lat="45.40619" lon="5.56877">
        <ele>513</ele>
        <time>2026-05-25T08:58:26Z</time>
      </trkpt>
      <trkpt lat="45.40627" lon="5.5687">
        <ele>514</ele>
        <time>2026-05-25T08:58:28Z</time>
      </trkpt>
      <trkpt lat="45.40639" lon="5.56837">
        <ele>511</ele>
        <time>2026-05-25T08:58:34Z</time>
      </trkpt>
      <trkpt lat="45.40644" lon="5.56827">
        <ele>511</ele>
        <time>2026-05-25T08:58:36Z</time>
      </trkpt>
      <trkpt lat="45.40679" lon="5.56754">
        <ele>504</ele>
        <time>2026-05-25T08:58:50Z</time>
      </trkpt>
      <trkpt lat="45.40694" lon="5.56715">
        <ele>501</ele>
        <time>2026-05-25T08:58:58Z</time>
      </trkpt>
      <trkpt lat="45.40695" lon="5.56675">
        <ele>497</ele>
        <time>2026-05-25T08:59:04Z</time>
      </trkpt>
      <trkpt lat="45.40695" lon="5.56607">
        <ele>494</ele>
        <time>2026-05-25T08:59:15Z</time>
      </trkpt>
      <trkpt lat="45.40699" lon="5.5656">
        <ele>493</ele>
        <time>2026-05-25T08:59:23Z</time>
      </trkpt>
      <trkpt lat="45.40718" lon="5.56501">
        <ele>493</ele>
        <time>2026-05-25T08:59:34Z</time>
      </trkpt>
      <trkpt lat="45.40739" lon="5.56453">
        <ele>492</ele>
        <time>2026-05-25T08:59:43Z</time>
      </trkpt>
      <trkpt lat="45.40748" lon="5.56448">
        <ele>492</ele>
        <time>2026-05-25T08:59:45Z</time>
      </trkpt>
      <trkpt lat="45.40833" lon="5.56312">
        <ele>490</ele>
        <time>2026-05-25T09:00:15Z</time>
      </trkpt>
      <trkpt lat="45.40837" lon="5.56305">
        <ele>490</ele>
        <time>2026-05-25T09:00:17Z</time>
      </trkpt>
      <trkpt lat="45.4085" lon="5.56276">
        <ele>490</ele>
        <time>2026-05-25T09:00:22Z</time>
      </trkpt>
      <trkpt lat="45.40888" lon="5.56218">
        <ele>488</ele>
        <time>2026-05-25T09:00:35Z</time>
      </trkpt>
      <trkpt lat="45.40891" lon="5.56217">
        <ele>488</ele>
        <time>2026-05-25T09:00:36Z</time>
      </trkpt>
      <trkpt lat="45.40904" lon="5.56219">
        <ele>489</ele>
        <time>2026-05-25T09:00:39Z</time>
      </trkpt>
      <trkpt lat="45.40958" lon="5.56162">
        <ele>486</ele>
        <time>2026-05-25T09:00:55Z</time>
      </trkpt>
      <trkpt lat="45.40966" lon="5.56165">
        <ele>486</ele>
        <time>2026-05-25T09:00:57Z</time>
      </trkpt>
      <trkpt lat="45.40982" lon="5.56196">
        <ele>487</ele>
        <time>2026-05-25T09:01:03Z</time>
      </trkpt>
      <trkpt lat="45.40985" lon="5.56194">
        <ele>487</ele>
        <time>2026-05-25T09:01:04Z</time>
      </trkpt>
      <trkpt lat="45.40988" lon="5.56191">
        <ele>487</ele>
        <time>2026-05-25T09:01:05Z</time>
      </trkpt>
      <trkpt lat="45.40987" lon="5.56188">
        <ele>487</ele>
        <time>2026-05-25T09:01:05Z</time>
      </trkpt>
      <trkpt lat="45.4097" lon="5.56153">
        <ele>485</ele>
        <time>2026-05-25T09:01:12Z</time>
      </trkpt>
      <trkpt lat="45.40962" lon="5.56133">
        <ele>483</ele>
        <time>2026-05-25T09:01:16Z</time>
      </trkpt>
      <trkpt lat="45.40958" lon="5.56117">
        <ele>482</ele>
        <time>2026-05-25T09:01:19Z</time>
      </trkpt>
      <trkpt lat="45.40962" lon="5.56087">
        <ele>479</ele>
        <time>2026-05-25T09:01:24Z</time>
      </trkpt>
      <trkpt lat="45.40956" lon="5.56066">
        <ele>479</ele>
        <time>2026-05-25T09:01:27Z</time>
      </trkpt>
      <trkpt lat="45.40952" lon="5.56058">
        <ele>479</ele>
        <time>2026-05-25T09:01:29Z</time>
      </trkpt>
      <trkpt lat="45.40966" lon="5.56044">
        <ele>480</ele>
        <time>2026-05-25T09:01:33Z</time>
      </trkpt>
      <trkpt lat="45.40963" lon="5.5601">
        <ele>480</ele>
        <time>2026-05-25T09:01:39Z</time>
      </trkpt>
      <trkpt lat="45.40981" lon="5.55961">
        <ele>482</ele>
        <time>2026-05-25T09:01:48Z</time>
      </trkpt>
      <trkpt lat="45.41036" lon="5.5591">
        <ele>482</ele>
        <time>2026-05-25T09:02:03Z</time>
      </trkpt>
      <trkpt lat="45.41057" lon="5.55881">
        <ele>481</ele>
        <time>2026-05-25T09:02:10Z</time>
      </trkpt>
      <trkpt lat="45.41076" lon="5.55831">
        <ele>479</ele>
        <time>2026-05-25T09:02:19Z</time>
      </trkpt>
      <trkpt lat="45.41032" lon="5.5573">
        <ele>478</ele>
        <time>2026-05-25T09:02:39Z</time>
      </trkpt>
      <trkpt lat="45.41035" lon="5.55725">
        <ele>477</ele>
        <time>2026-05-25T09:02:40Z</time>
      </trkpt>
      <trkpt lat="45.41039" lon="5.55713">
        <ele>477</ele>
        <time>2026-05-25T09:02:42Z</time>
      </trkpt>
      <trkpt lat="45.41048" lon="5.55713">
        <ele>476</ele>
        <time>2026-05-25T09:02:44Z</time>
      </trkpt>
      <trkpt lat="45.41055" lon="5.55712">
        <ele>476</ele>
        <time>2026-05-25T09:02:46Z</time>
      </trkpt>
      <trkpt lat="45.4106" lon="5.55699">
        <ele>475</ele>
        <time>2026-05-25T09:02:48Z</time>
      </trkpt>
      <trkpt lat="45.41063" lon="5.55695">
        <ele>475</ele>
        <time>2026-05-25T09:02:49Z</time>
      </trkpt>
      <trkpt lat="45.41152" lon="5.55593">
        <ele>472</ele>
        <time>2026-05-25T09:03:16Z</time>
      </trkpt>
      <trkpt lat="45.41163" lon="5.55576">
        <ele>472</ele>
        <time>2026-05-25T09:03:20Z</time>
      </trkpt>
      <trkpt lat="45.41165" lon="5.55572">
        <ele>472</ele>
        <time>2026-05-25T09:03:20Z</time>
      </trkpt>
      <trkpt lat="45.41168" lon="5.55567">
        <ele>472</ele>
        <time>2026-05-25T09:03:21Z</time>
      </trkpt>
      <trkpt lat="45.412" lon="5.55524">
        <ele>471</ele>
        <time>2026-05-25T09:03:32Z</time>
      </trkpt>
      <trkpt lat="45.41205" lon="5.55512">
        <ele>471</ele>
        <time>2026-05-25T09:03:34Z</time>
      </trkpt>
      <trkpt lat="45.41207" lon="5.55503">
        <ele>471</ele>
        <time>2026-05-25T09:03:36Z</time>
      </trkpt>
      <trkpt lat="45.41174" lon="5.55441">
        <ele>471</ele>
        <time>2026-05-25T09:03:48Z</time>
      </trkpt>
      <trkpt lat="45.41168" lon="5.55434">
        <ele>471</ele>
        <time>2026-05-25T09:03:50Z</time>
      </trkpt>
      <trkpt lat="45.41174" lon="5.55441">
        <ele>471</ele>
        <time>2026-05-25T09:03:52Z</time>
      </trkpt>
      <trkpt lat="45.41207" lon="5.55503">
        <ele>471</ele>
        <time>2026-05-25T09:04:05Z</time>
      </trkpt>
      <trkpt lat="45.41205" lon="5.55512">
        <ele>471</ele>
        <time>2026-05-25T09:04:06Z</time>
      </trkpt>
      <trkpt lat="45.412" lon="5.55524">
        <ele>471</ele>
        <time>2026-05-25T09:04:09Z</time>
      </trkpt>
      <trkpt lat="45.41201" lon="5.55526">
        <ele>471</ele>
        <time>2026-05-25T09:04:09Z</time>
      </trkpt>
      <trkpt lat="45.41222" lon="5.55543">
        <ele>471</ele>
        <time>2026-05-25T09:04:15Z</time>
      </trkpt>
      <trkpt lat="45.41247" lon="5.55577">
        <ele>471</ele>
        <time>2026-05-25T09:04:23Z</time>
      </trkpt>
      <trkpt lat="45.41255" lon="5.55585">
        <ele>471</ele>
        <time>2026-05-25T09:04:25Z</time>
      </trkpt>
      <trkpt lat="45.41286" lon="5.55585">
        <ele>470</ele>
        <time>2026-05-25T09:04:32Z</time>
      </trkpt>
      <trkpt lat="45.41294" lon="5.55578">
        <ele>470</ele>
        <time>2026-05-25T09:04:34Z</time>
      </trkpt>
      <trkpt lat="45.41314" lon="5.55567">
        <ele>469</ele>
        <time>2026-05-25T09:04:39Z</time>
      </trkpt>
      <trkpt lat="45.41364" lon="5.55535">
        <ele>467</ele>
        <time>2026-05-25T09:04:52Z</time>
      </trkpt>
      <trkpt lat="45.4137" lon="5.55535">
        <ele>467</ele>
        <time>2026-05-25T09:04:54Z</time>
      </trkpt>
      <trkpt lat="45.4138" lon="5.55533">
        <ele>466</ele>
        <time>2026-05-25T09:04:56Z</time>
      </trkpt>
      <trkpt lat="45.41392" lon="5.55534">
        <ele>466</ele>
        <time>2026-05-25T09:04:59Z</time>
      </trkpt>
    </trkseg>
  </trk>
</gpx>